<?xml version="1.0" encoding="UTF-8" standalone="no" ?>
<gpx xmlns="http://www.topografix.com/GPX/1/1" xmlns:xsi="http://www.w3.org/2001/XMLSchema-instance" xsi:schemaLocation="http://www.topografix.com/GPX/1/1 http://www.topografix.com/GPX/1/1/gpx.xsd" version="1.1" creator="VisuGPX - https://www.visugpx.com">
  <metadata>
    <name>De Villepreux-Les-Clayes à Saint-Cyr-l\'Ecole </name>
    <desc><![CDATA[Randonnée de 18km en ligne à travers la forêt de Bois d\'Arcy]]></desc>
  </metadata>
  <trk>
    <name><![CDATA[Villepreux-Les-Clayes à Saint-Cyr-l'Ecole_R]]></name>
    <trkseg>
      <trkpt lat="48.82366" lon="1.99284">
        <ele>125.11</ele>
        <time>2014-11-23T08:31:13Z</time>
      </trkpt>
      <trkpt lat="48.82367" lon="1.99283">
        <ele>125.11</ele>
        <time>2014-11-23T08:31:14Z</time>
      </trkpt>
      <trkpt lat="48.82368" lon="1.9928">
        <ele>119.34</ele>
        <time>2014-11-23T08:31:18Z</time>
      </trkpt>
      <trkpt lat="48.82368" lon="1.99279">
        <ele>119.34</ele>
        <time>2014-11-23T08:31:19Z</time>
      </trkpt>
      <trkpt lat="48.82375" lon="1.99263">
        <ele>118.86</ele>
        <time>2014-11-23T08:31:34Z</time>
      </trkpt>
      <trkpt lat="48.82376" lon="1.99265">
        <ele>118.86</ele>
        <time>2014-11-23T08:31:54Z</time>
      </trkpt>
      <trkpt lat="48.82379" lon="1.99266">
        <ele>118.86</ele>
        <time>2014-11-23T08:32:09Z</time>
      </trkpt>
      <trkpt lat="48.82378" lon="1.99259">
        <ele>115.98</ele>
        <time>2014-11-23T08:32:23Z</time>
      </trkpt>
      <trkpt lat="48.82415" lon="1.99299">
        <ele>114.05</ele>
        <time>2014-11-23T08:32:41Z</time>
      </trkpt>
      <trkpt lat="48.82365" lon="1.99229">
        <ele>114.05</ele>
        <time>2014-11-23T08:33:08Z</time>
      </trkpt>
      <trkpt lat="48.82363" lon="1.99233">
        <ele>116.46</ele>
        <time>2014-11-23T08:33:23Z</time>
      </trkpt>
      <trkpt lat="48.82355" lon="1.99228">
        <ele>116.46</ele>
        <time>2014-11-23T08:33:38Z</time>
      </trkpt>
      <trkpt lat="48.82354" lon="1.99227">
        <ele>115.98</ele>
        <time>2014-11-23T08:34:03Z</time>
      </trkpt>
      <trkpt lat="48.82353" lon="1.99225">
        <ele>115.98</ele>
        <time>2014-11-23T08:34:24Z</time>
      </trkpt>
      <trkpt lat="48.82356" lon="1.99228">
        <ele>115.98</ele>
        <time>2014-11-23T08:34:39Z</time>
      </trkpt>
      <trkpt lat="48.82358" lon="1.99225">
        <ele>115.98</ele>
        <time>2014-11-23T08:35:12Z</time>
      </trkpt>
      <trkpt lat="48.82357" lon="1.99223">
        <ele>115.5</ele>
        <time>2014-11-23T08:35:36Z</time>
      </trkpt>
      <trkpt lat="48.82356" lon="1.99222">
        <ele>115.5</ele>
        <time>2014-11-23T08:35:58Z</time>
      </trkpt>
      <trkpt lat="48.82358" lon="1.99225">
        <ele>115.5</ele>
        <time>2014-11-23T08:36:20Z</time>
      </trkpt>
      <trkpt lat="48.82355" lon="1.99224">
        <ele>115.5</ele>
        <time>2014-11-23T08:36:45Z</time>
      </trkpt>
      <trkpt lat="48.82353" lon="1.99223">
        <ele>115.5</ele>
        <time>2014-11-23T08:37:03Z</time>
      </trkpt>
      <trkpt lat="48.82351" lon="1.99224">
        <ele>115.98</ele>
        <time>2014-11-23T08:37:15Z</time>
      </trkpt>
      <trkpt lat="48.82347" lon="1.99216">
        <ele>115.98</ele>
        <time>2014-11-23T08:37:31Z</time>
      </trkpt>
      <trkpt lat="48.82334" lon="1.99209">
        <ele>115.98</ele>
        <time>2014-11-23T08:37:46Z</time>
      </trkpt>
      <trkpt lat="48.82333" lon="1.99206">
        <ele>116.46</ele>
        <time>2014-11-23T08:37:48Z</time>
      </trkpt>
      <trkpt lat="48.82329" lon="1.99203">
        <ele>116.46</ele>
        <time>2014-11-23T08:37:53Z</time>
      </trkpt>
      <trkpt lat="48.82316" lon="1.99205">
        <ele>116.46</ele>
        <time>2014-11-23T08:38:08Z</time>
      </trkpt>
      <trkpt lat="48.82309" lon="1.99214">
        <ele>116.94</ele>
        <time>2014-11-23T08:38:20Z</time>
      </trkpt>
      <trkpt lat="48.82303" lon="1.99221">
        <ele>116.94</ele>
        <time>2014-11-23T08:38:30Z</time>
      </trkpt>
      <trkpt lat="48.82293" lon="1.99233">
        <ele>117.42</ele>
        <time>2014-11-23T08:38:45Z</time>
      </trkpt>
      <trkpt lat="48.82287" lon="1.9924">
        <ele>117.9</ele>
        <time>2014-11-23T08:38:52Z</time>
      </trkpt>
      <trkpt lat="48.82276" lon="1.99258">
        <ele>118.38</ele>
        <time>2014-11-23T08:39:06Z</time>
      </trkpt>
      <trkpt lat="48.82271" lon="1.99258">
        <ele>117.9</ele>
        <time>2014-11-23T08:39:11Z</time>
      </trkpt>
      <trkpt lat="48.82258" lon="1.99252">
        <ele>118.38</ele>
        <time>2014-11-23T08:39:23Z</time>
      </trkpt>
      <trkpt lat="48.82256" lon="1.99249">
        <ele>118.38</ele>
        <time>2014-11-23T08:39:26Z</time>
      </trkpt>
      <trkpt lat="48.82244" lon="1.99239">
        <ele>118.86</ele>
        <time>2014-11-23T08:39:41Z</time>
      </trkpt>
      <trkpt lat="48.82237" lon="1.99231">
        <ele>118.86</ele>
        <time>2014-11-23T08:39:51Z</time>
      </trkpt>
      <trkpt lat="48.82226" lon="1.99219">
        <ele>119.34</ele>
        <time>2014-11-23T08:40:03Z</time>
      </trkpt>
      <trkpt lat="48.82216" lon="1.9921">
        <ele>119.82</ele>
        <time>2014-11-23T08:40:16Z</time>
      </trkpt>
      <trkpt lat="48.82215" lon="1.99207">
        <ele>119.34</ele>
        <time>2014-11-23T08:40:20Z</time>
      </trkpt>
      <trkpt lat="48.8221" lon="1.99201">
        <ele>119.82</ele>
        <time>2014-11-23T08:40:27Z</time>
      </trkpt>
      <trkpt lat="48.82197" lon="1.99185">
        <ele>119.82</ele>
        <time>2014-11-23T08:40:41Z</time>
      </trkpt>
      <trkpt lat="48.82188" lon="1.99174">
        <ele>120.3</ele>
        <time>2014-11-23T08:40:52Z</time>
      </trkpt>
      <trkpt lat="48.8217" lon="1.99157">
        <ele>120.78</ele>
        <time>2014-11-23T08:41:10Z</time>
      </trkpt>
      <trkpt lat="48.82167" lon="1.99154">
        <ele>120.78</ele>
        <time>2014-11-23T08:41:13Z</time>
      </trkpt>
      <trkpt lat="48.8215" lon="1.99146">
        <ele>120.78</ele>
        <time>2014-11-23T08:41:29Z</time>
      </trkpt>
      <trkpt lat="48.82148" lon="1.99146">
        <ele>120.78</ele>
        <time>2014-11-23T08:41:31Z</time>
      </trkpt>
      <trkpt lat="48.8213" lon="1.99141">
        <ele>120.78</ele>
        <time>2014-11-23T08:41:48Z</time>
      </trkpt>
      <trkpt lat="48.82125" lon="1.99139">
        <ele>120.78</ele>
        <time>2014-11-23T08:41:52Z</time>
      </trkpt>
      <trkpt lat="48.82105" lon="1.99137">
        <ele>120.78</ele>
        <time>2014-11-23T08:42:09Z</time>
      </trkpt>
      <trkpt lat="48.82089" lon="1.99133">
        <ele>120.78</ele>
        <time>2014-11-23T08:42:22Z</time>
      </trkpt>
      <trkpt lat="48.82084" lon="1.99146">
        <ele>120.3</ele>
        <time>2014-11-23T08:42:36Z</time>
      </trkpt>
      <trkpt lat="48.82074" lon="1.99152">
        <ele>120.3</ele>
        <time>2014-11-23T08:42:52Z</time>
      </trkpt>
      <trkpt lat="48.82066" lon="1.99149">
        <ele>120.78</ele>
        <time>2014-11-23T08:43:06Z</time>
      </trkpt>
      <trkpt lat="48.82058" lon="1.99134">
        <ele>120.3</ele>
        <time>2014-11-23T08:43:18Z</time>
      </trkpt>
      <trkpt lat="48.82047" lon="1.99116">
        <ele>120.3</ele>
        <time>2014-11-23T08:43:34Z</time>
      </trkpt>
      <trkpt lat="48.82036" lon="1.99098">
        <ele>120.3</ele>
        <time>2014-11-23T08:43:50Z</time>
      </trkpt>
      <trkpt lat="48.82021" lon="1.99077">
        <ele>120.3</ele>
        <time>2014-11-23T08:44:07Z</time>
      </trkpt>
      <trkpt lat="48.82012" lon="1.99061">
        <ele>120.3</ele>
        <time>2014-11-23T08:44:21Z</time>
      </trkpt>
      <trkpt lat="48.82002" lon="1.99045">
        <ele>120.78</ele>
        <time>2014-11-23T08:44:36Z</time>
      </trkpt>
      <trkpt lat="48.81989" lon="1.99022">
        <ele>120.78</ele>
        <time>2014-11-23T08:44:53Z</time>
      </trkpt>
      <trkpt lat="48.81979" lon="1.99002">
        <ele>121.26</ele>
        <time>2014-11-23T08:45:10Z</time>
      </trkpt>
      <trkpt lat="48.8198" lon="1.98986">
        <ele>121.26</ele>
        <time>2014-11-23T08:45:24Z</time>
      </trkpt>
      <trkpt lat="48.81971" lon="1.98979">
        <ele>121.26</ele>
        <time>2014-11-23T08:45:37Z</time>
      </trkpt>
      <trkpt lat="48.81957" lon="1.98966">
        <ele>120.78</ele>
        <time>2014-11-23T08:45:56Z</time>
      </trkpt>
      <trkpt lat="48.81946" lon="1.98961">
        <ele>120.78</ele>
        <time>2014-11-23T08:46:14Z</time>
      </trkpt>
      <trkpt lat="48.81938" lon="1.98948">
        <ele>120.78</ele>
        <time>2014-11-23T08:46:31Z</time>
      </trkpt>
      <trkpt lat="48.81927" lon="1.98929">
        <ele>121.26</ele>
        <time>2014-11-23T08:46:49Z</time>
      </trkpt>
      <trkpt lat="48.81917" lon="1.98912">
        <ele>121.74</ele>
        <time>2014-11-23T08:47:05Z</time>
      </trkpt>
      <trkpt lat="48.81909" lon="1.98895">
        <ele>122.22</ele>
        <time>2014-11-23T08:47:21Z</time>
      </trkpt>
      <trkpt lat="48.81904" lon="1.98889">
        <ele>122.22</ele>
        <time>2014-11-23T08:47:33Z</time>
      </trkpt>
      <trkpt lat="48.81895" lon="1.98881">
        <ele>122.22</ele>
        <time>2014-11-23T08:47:49Z</time>
      </trkpt>
      <trkpt lat="48.81895" lon="1.9888">
        <ele>122.22</ele>
        <time>2014-11-23T08:48:06Z</time>
      </trkpt>
      <trkpt lat="48.81894" lon="1.98881">
        <ele>122.71</ele>
        <time>2014-11-23T08:48:08Z</time>
      </trkpt>
      <trkpt lat="48.81879" lon="1.98907">
        <ele>122.22</ele>
        <time>2014-11-23T08:48:23Z</time>
      </trkpt>
      <trkpt lat="48.8187" lon="1.98917">
        <ele>121.74</ele>
        <time>2014-11-23T08:48:35Z</time>
      </trkpt>
      <trkpt lat="48.81864" lon="1.98926">
        <ele>121.74</ele>
        <time>2014-11-23T08:48:51Z</time>
      </trkpt>
      <trkpt lat="48.81854" lon="1.98927">
        <ele>122.71</ele>
        <time>2014-11-23T08:49:18Z</time>
      </trkpt>
      <trkpt lat="48.81848" lon="1.98926">
        <ele>121.74</ele>
        <time>2014-11-23T08:52:07Z</time>
      </trkpt>
      <trkpt lat="48.81845" lon="1.98924">
        <ele>121.26</ele>
        <time>2014-11-23T08:52:24Z</time>
      </trkpt>
      <trkpt lat="48.81839" lon="1.9892">
        <ele>121.74</ele>
        <time>2014-11-23T08:52:38Z</time>
      </trkpt>
      <trkpt lat="48.81829" lon="1.98899">
        <ele>122.22</ele>
        <time>2014-11-23T08:52:55Z</time>
      </trkpt>
      <trkpt lat="48.81825" lon="1.98881">
        <ele>122.71</ele>
        <time>2014-11-23T08:53:09Z</time>
      </trkpt>
      <trkpt lat="48.81823" lon="1.9886">
        <ele>123.19</ele>
        <time>2014-11-23T08:53:24Z</time>
      </trkpt>
      <trkpt lat="48.81818" lon="1.98851">
        <ele>123.19</ele>
        <time>2014-11-23T08:53:33Z</time>
      </trkpt>
      <trkpt lat="48.81808" lon="1.98837">
        <ele>123.67</ele>
        <time>2014-11-23T08:53:49Z</time>
      </trkpt>
      <trkpt lat="48.81796" lon="1.98818">
        <ele>124.15</ele>
        <time>2014-11-23T08:54:05Z</time>
      </trkpt>
      <trkpt lat="48.8178" lon="1.988">
        <ele>124.15</ele>
        <time>2014-11-23T08:54:22Z</time>
      </trkpt>
      <trkpt lat="48.81763" lon="1.98794">
        <ele>124.15</ele>
        <time>2014-11-23T08:54:37Z</time>
      </trkpt>
      <trkpt lat="48.8175" lon="1.98792">
        <ele>124.15</ele>
        <time>2014-11-23T08:54:51Z</time>
      </trkpt>
      <trkpt lat="48.8173" lon="1.98786">
        <ele>124.15</ele>
        <time>2014-11-23T08:55:07Z</time>
      </trkpt>
      <trkpt lat="48.8172" lon="1.98783">
        <ele>123.67</ele>
        <time>2014-11-23T08:55:18Z</time>
      </trkpt>
      <trkpt lat="48.81704" lon="1.98777">
        <ele>124.15</ele>
        <time>2014-11-23T08:55:34Z</time>
      </trkpt>
      <trkpt lat="48.81683" lon="1.9877">
        <ele>124.15</ele>
        <time>2014-11-23T08:55:53Z</time>
      </trkpt>
      <trkpt lat="48.81669" lon="1.98765">
        <ele>125.11</ele>
        <time>2014-11-23T08:56:08Z</time>
      </trkpt>
      <trkpt lat="48.81659" lon="1.98762">
        <ele>125.59</ele>
        <time>2014-11-23T08:56:23Z</time>
      </trkpt>
      <trkpt lat="48.81657" lon="1.98762">
        <ele>125.59</ele>
        <time>2014-11-23T08:56:41Z</time>
      </trkpt>
      <trkpt lat="48.81651" lon="1.98765">
        <ele>126.07</ele>
        <time>2014-11-23T08:56:53Z</time>
      </trkpt>
      <trkpt lat="48.81645" lon="1.98771">
        <ele>126.07</ele>
        <time>2014-11-23T08:57:03Z</time>
      </trkpt>
      <trkpt lat="48.81629" lon="1.98782">
        <ele>126.07</ele>
        <time>2014-11-23T08:57:21Z</time>
      </trkpt>
      <trkpt lat="48.81628" lon="1.98788">
        <ele>126.55</ele>
        <time>2014-11-23T08:57:33Z</time>
      </trkpt>
      <trkpt lat="48.81626" lon="1.98796">
        <ele>126.55</ele>
        <time>2014-11-23T08:57:54Z</time>
      </trkpt>
      <trkpt lat="48.81628" lon="1.98816">
        <ele>126.07</ele>
        <time>2014-11-23T08:58:09Z</time>
      </trkpt>
      <trkpt lat="48.81639" lon="1.98837">
        <ele>125.59</ele>
        <time>2014-11-23T08:58:30Z</time>
      </trkpt>
      <trkpt lat="48.81643" lon="1.98858">
        <ele>125.11</ele>
        <time>2014-11-23T08:58:47Z</time>
      </trkpt>
      <trkpt lat="48.81651" lon="1.98878">
        <ele>123.67</ele>
        <time>2014-11-23T08:59:07Z</time>
      </trkpt>
      <trkpt lat="48.81656" lon="1.98898">
        <ele>123.67</ele>
        <time>2014-11-23T08:59:25Z</time>
      </trkpt>
      <trkpt lat="48.8167" lon="1.98914">
        <ele>122.71</ele>
        <time>2014-11-23T08:59:40Z</time>
      </trkpt>
      <trkpt lat="48.81684" lon="1.98927">
        <ele>121.74</ele>
        <time>2014-11-23T08:59:57Z</time>
      </trkpt>
      <trkpt lat="48.81695" lon="1.98928">
        <ele>121.26</ele>
        <time>2014-11-23T09:00:12Z</time>
      </trkpt>
      <trkpt lat="48.81707" lon="1.98942">
        <ele>120.3</ele>
        <time>2014-11-23T09:00:29Z</time>
      </trkpt>
      <trkpt lat="48.81714" lon="1.98958">
        <ele>119.82</ele>
        <time>2014-11-23T09:00:46Z</time>
      </trkpt>
      <trkpt lat="48.8171" lon="1.98971">
        <ele>119.34</ele>
        <time>2014-11-23T09:00:58Z</time>
      </trkpt>
      <trkpt lat="48.81702" lon="1.98978">
        <ele>119.82</ele>
        <time>2014-11-23T09:01:07Z</time>
      </trkpt>
      <trkpt lat="48.81692" lon="1.98994">
        <ele>119.82</ele>
        <time>2014-11-23T09:01:21Z</time>
      </trkpt>
      <trkpt lat="48.81681" lon="1.99016">
        <ele>120.78</ele>
        <time>2014-11-23T09:01:38Z</time>
      </trkpt>
      <trkpt lat="48.81676" lon="1.9902">
        <ele>121.26</ele>
        <time>2014-11-23T09:01:44Z</time>
      </trkpt>
      <trkpt lat="48.81665" lon="1.99015">
        <ele>122.22</ele>
        <time>2014-11-23T09:01:55Z</time>
      </trkpt>
      <trkpt lat="48.8165" lon="1.99">
        <ele>122.71</ele>
        <time>2014-11-23T09:02:13Z</time>
      </trkpt>
      <trkpt lat="48.81638" lon="1.98982">
        <ele>123.19</ele>
        <time>2014-11-23T09:02:29Z</time>
      </trkpt>
      <trkpt lat="48.81625" lon="1.98966">
        <ele>124.15</ele>
        <time>2014-11-23T09:02:45Z</time>
      </trkpt>
      <trkpt lat="48.81615" lon="1.98947">
        <ele>125.11</ele>
        <time>2014-11-23T09:03:00Z</time>
      </trkpt>
      <trkpt lat="48.81606" lon="1.98937">
        <ele>125.59</ele>
        <time>2014-11-23T09:03:13Z</time>
      </trkpt>
      <trkpt lat="48.81595" lon="1.98928">
        <ele>126.07</ele>
        <time>2014-11-23T09:03:26Z</time>
      </trkpt>
      <trkpt lat="48.81581" lon="1.98918">
        <ele>127.03</ele>
        <time>2014-11-23T09:03:40Z</time>
      </trkpt>
      <trkpt lat="48.81565" lon="1.98902">
        <ele>127.99</ele>
        <time>2014-11-23T09:03:56Z</time>
      </trkpt>
      <trkpt lat="48.81549" lon="1.98889">
        <ele>128.47</ele>
        <time>2014-11-23T09:04:13Z</time>
      </trkpt>
      <trkpt lat="48.81534" lon="1.98881">
        <ele>129.43</ele>
        <time>2014-11-23T09:04:29Z</time>
      </trkpt>
      <trkpt lat="48.81522" lon="1.98869">
        <ele>130.4</ele>
        <time>2014-11-23T09:04:45Z</time>
      </trkpt>
      <trkpt lat="48.81509" lon="1.98853">
        <ele>131.36</ele>
        <time>2014-11-23T09:05:02Z</time>
      </trkpt>
      <trkpt lat="48.81495" lon="1.98841">
        <ele>132.8</ele>
        <time>2014-11-23T09:05:18Z</time>
      </trkpt>
      <trkpt lat="48.81479" lon="1.9883">
        <ele>133.76</ele>
        <time>2014-11-23T09:05:33Z</time>
      </trkpt>
      <trkpt lat="48.81462" lon="1.9882">
        <ele>135.2</ele>
        <time>2014-11-23T09:05:50Z</time>
      </trkpt>
      <trkpt lat="48.81452" lon="1.98808">
        <ele>135.68</ele>
        <time>2014-11-23T09:06:05Z</time>
      </trkpt>
      <trkpt lat="48.81443" lon="1.98791">
        <ele>136.64</ele>
        <time>2014-11-23T09:06:20Z</time>
      </trkpt>
      <trkpt lat="48.81432" lon="1.98775">
        <ele>138.09</ele>
        <time>2014-11-23T09:06:37Z</time>
      </trkpt>
      <trkpt lat="48.81422" lon="1.98765">
        <ele>140.01</ele>
        <time>2014-11-23T09:06:56Z</time>
      </trkpt>
      <trkpt lat="48.81414" lon="1.98745">
        <ele>140.97</ele>
        <time>2014-11-23T09:07:13Z</time>
      </trkpt>
      <trkpt lat="48.81402" lon="1.98734">
        <ele>142.89</ele>
        <time>2014-11-23T09:07:30Z</time>
      </trkpt>
      <trkpt lat="48.81399" lon="1.98718">
        <ele>144.34</ele>
        <time>2014-11-23T09:07:46Z</time>
      </trkpt>
      <trkpt lat="48.81387" lon="1.98699">
        <ele>145.78</ele>
        <time>2014-11-23T09:08:02Z</time>
      </trkpt>
      <trkpt lat="48.81381" lon="1.98686">
        <ele>147.7</ele>
        <time>2014-11-23T09:08:16Z</time>
      </trkpt>
      <trkpt lat="48.81374" lon="1.98675">
        <ele>149.62</ele>
        <time>2014-11-23T09:08:31Z</time>
      </trkpt>
      <trkpt lat="48.81366" lon="1.98662">
        <ele>150.58</ele>
        <time>2014-11-23T09:08:45Z</time>
      </trkpt>
      <trkpt lat="48.8136" lon="1.98652">
        <ele>152.51</ele>
        <time>2014-11-23T09:09:00Z</time>
      </trkpt>
      <trkpt lat="48.81351" lon="1.98643">
        <ele>152.99</ele>
        <time>2014-11-23T09:09:17Z</time>
      </trkpt>
      <trkpt lat="48.8134" lon="1.98634">
        <ele>154.43</ele>
        <time>2014-11-23T09:09:36Z</time>
      </trkpt>
      <trkpt lat="48.8133" lon="1.98626">
        <ele>157.31</ele>
        <time>2014-11-23T09:09:53Z</time>
      </trkpt>
      <trkpt lat="48.81321" lon="1.98621">
        <ele>159.24</ele>
        <time>2014-11-23T09:10:11Z</time>
      </trkpt>
      <trkpt lat="48.81307" lon="1.98608">
        <ele>161.16</ele>
        <time>2014-11-23T09:10:29Z</time>
      </trkpt>
      <trkpt lat="48.81298" lon="1.98611">
        <ele>162.12</ele>
        <time>2014-11-23T09:10:43Z</time>
      </trkpt>
      <trkpt lat="48.81287" lon="1.98608">
        <ele>163.08</ele>
        <time>2014-11-23T09:10:57Z</time>
      </trkpt>
      <trkpt lat="48.81271" lon="1.98605">
        <ele>164.52</ele>
        <time>2014-11-23T09:11:14Z</time>
      </trkpt>
      <trkpt lat="48.81259" lon="1.986">
        <ele>165.96</ele>
        <time>2014-11-23T09:11:31Z</time>
      </trkpt>
      <trkpt lat="48.81247" lon="1.98601">
        <ele>165.96</ele>
        <time>2014-11-23T09:11:49Z</time>
      </trkpt>
      <trkpt lat="48.81239" lon="1.98601">
        <ele>167.89</ele>
        <time>2014-11-23T09:15:16Z</time>
      </trkpt>
      <trkpt lat="48.81243" lon="1.98596">
        <ele>168.37</ele>
        <time>2014-11-23T09:15:41Z</time>
      </trkpt>
      <trkpt lat="48.81244" lon="1.98595">
        <ele>168.37</ele>
        <time>2014-11-23T09:16:08Z</time>
      </trkpt>
      <trkpt lat="48.81246" lon="1.98594">
        <ele>168.37</ele>
        <time>2014-11-23T09:16:36Z</time>
      </trkpt>
      <trkpt lat="48.81257" lon="1.98588">
        <ele>168.37</ele>
        <time>2014-11-23T09:16:59Z</time>
      </trkpt>
      <trkpt lat="48.81259" lon="1.98585">
        <ele>168.37</ele>
        <time>2014-11-23T09:17:16Z</time>
      </trkpt>
      <trkpt lat="48.81273" lon="1.98572">
        <ele>167.89</ele>
        <time>2014-11-23T09:17:34Z</time>
      </trkpt>
      <trkpt lat="48.81282" lon="1.98559">
        <ele>168.37</ele>
        <time>2014-11-23T09:17:50Z</time>
      </trkpt>
      <trkpt lat="48.8129" lon="1.98541">
        <ele>168.37</ele>
        <time>2014-11-23T09:18:07Z</time>
      </trkpt>
      <trkpt lat="48.81301" lon="1.98518">
        <ele>168.37</ele>
        <time>2014-11-23T09:18:24Z</time>
      </trkpt>
      <trkpt lat="48.81306" lon="1.98507">
        <ele>168.37</ele>
        <time>2014-11-23T09:18:32Z</time>
      </trkpt>
      <trkpt lat="48.81315" lon="1.98482">
        <ele>168.85</ele>
        <time>2014-11-23T09:18:49Z</time>
      </trkpt>
      <trkpt lat="48.81323" lon="1.98466">
        <ele>168.85</ele>
        <time>2014-11-23T09:19:03Z</time>
      </trkpt>
      <trkpt lat="48.81333" lon="1.98447">
        <ele>169.33</ele>
        <time>2014-11-23T09:19:19Z</time>
      </trkpt>
      <trkpt lat="48.81343" lon="1.98422">
        <ele>169.33</ele>
        <time>2014-11-23T09:19:35Z</time>
      </trkpt>
      <trkpt lat="48.81348" lon="1.98407">
        <ele>169.81</ele>
        <time>2014-11-23T09:19:50Z</time>
      </trkpt>
      <trkpt lat="48.81358" lon="1.98383">
        <ele>170.29</ele>
        <time>2014-11-23T09:20:05Z</time>
      </trkpt>
      <trkpt lat="48.81368" lon="1.98358">
        <ele>170.29</ele>
        <time>2014-11-23T09:20:24Z</time>
      </trkpt>
      <trkpt lat="48.81373" lon="1.98337">
        <ele>170.29</ele>
        <time>2014-11-23T09:20:39Z</time>
      </trkpt>
      <trkpt lat="48.81382" lon="1.98317">
        <ele>170.77</ele>
        <time>2014-11-23T09:20:54Z</time>
      </trkpt>
      <trkpt lat="48.8139" lon="1.98299">
        <ele>170.77</ele>
        <time>2014-11-23T09:21:10Z</time>
      </trkpt>
      <trkpt lat="48.81399" lon="1.98282">
        <ele>171.25</ele>
        <time>2014-11-23T09:21:25Z</time>
      </trkpt>
      <trkpt lat="48.81408" lon="1.98258">
        <ele>170.77</ele>
        <time>2014-11-23T09:21:44Z</time>
      </trkpt>
      <trkpt lat="48.81417" lon="1.98236">
        <ele>171.25</ele>
        <time>2014-11-23T09:22:01Z</time>
      </trkpt>
      <trkpt lat="48.81429" lon="1.98212">
        <ele>170.77</ele>
        <time>2014-11-23T09:22:18Z</time>
      </trkpt>
      <trkpt lat="48.81438" lon="1.98192">
        <ele>169.81</ele>
        <time>2014-11-23T09:22:34Z</time>
      </trkpt>
      <trkpt lat="48.81446" lon="1.98167">
        <ele>168.85</ele>
        <time>2014-11-23T09:22:51Z</time>
      </trkpt>
      <trkpt lat="48.81456" lon="1.98142">
        <ele>167.89</ele>
        <time>2014-11-23T09:23:09Z</time>
      </trkpt>
      <trkpt lat="48.81472" lon="1.98103">
        <ele>168.37</ele>
        <time>2014-11-23T09:23:29Z</time>
      </trkpt>
      <trkpt lat="48.81479" lon="1.98077">
        <ele>168.85</ele>
        <time>2014-11-23T09:23:49Z</time>
      </trkpt>
      <trkpt lat="48.81482" lon="1.98051">
        <ele>169.33</ele>
        <time>2014-11-23T09:24:04Z</time>
      </trkpt>
      <trkpt lat="48.81481" lon="1.98037">
        <ele>169.81</ele>
        <time>2014-11-23T09:24:18Z</time>
      </trkpt>
      <trkpt lat="48.8148" lon="1.98009">
        <ele>170.77</ele>
        <time>2014-11-23T09:24:32Z</time>
      </trkpt>
      <trkpt lat="48.81478" lon="1.97994">
        <ele>171.25</ele>
        <time>2014-11-23T09:24:47Z</time>
      </trkpt>
      <trkpt lat="48.81478" lon="1.97974">
        <ele>171.25</ele>
        <time>2014-11-23T09:25:07Z</time>
      </trkpt>
      <trkpt lat="48.81477" lon="1.97948">
        <ele>171.73</ele>
        <time>2014-11-23T09:25:20Z</time>
      </trkpt>
      <trkpt lat="48.81475" lon="1.97927">
        <ele>171.73</ele>
        <time>2014-11-23T09:25:35Z</time>
      </trkpt>
      <trkpt lat="48.81471" lon="1.97902">
        <ele>171.73</ele>
        <time>2014-11-23T09:25:48Z</time>
      </trkpt>
      <trkpt lat="48.81471" lon="1.9788">
        <ele>172.21</ele>
        <time>2014-11-23T09:26:02Z</time>
      </trkpt>
      <trkpt lat="48.81469" lon="1.97862">
        <ele>172.21</ele>
        <time>2014-11-23T09:26:11Z</time>
      </trkpt>
      <trkpt lat="48.81469" lon="1.97834">
        <ele>172.69</ele>
        <time>2014-11-23T09:26:28Z</time>
      </trkpt>
      <trkpt lat="48.81465" lon="1.97805">
        <ele>172.69</ele>
        <time>2014-11-23T09:26:44Z</time>
      </trkpt>
      <trkpt lat="48.81466" lon="1.97781">
        <ele>172.69</ele>
        <time>2014-11-23T09:26:59Z</time>
      </trkpt>
      <trkpt lat="48.81465" lon="1.97757">
        <ele>172.69</ele>
        <time>2014-11-23T09:27:12Z</time>
      </trkpt>
      <trkpt lat="48.81464" lon="1.97736">
        <ele>172.69</ele>
        <time>2014-11-23T09:27:24Z</time>
      </trkpt>
      <trkpt lat="48.81466" lon="1.97717">
        <ele>172.69</ele>
        <time>2014-11-23T09:27:37Z</time>
      </trkpt>
      <trkpt lat="48.8146" lon="1.97692">
        <ele>173.17</ele>
        <time>2014-11-23T09:27:52Z</time>
      </trkpt>
      <trkpt lat="48.81459" lon="1.9768">
        <ele>172.69</ele>
        <time>2014-11-23T09:28:00Z</time>
      </trkpt>
      <trkpt lat="48.81457" lon="1.97651">
        <ele>172.69</ele>
        <time>2014-11-23T09:28:17Z</time>
      </trkpt>
      <trkpt lat="48.81457" lon="1.97628">
        <ele>172.69</ele>
        <time>2014-11-23T09:28:30Z</time>
      </trkpt>
      <trkpt lat="48.81454" lon="1.97612">
        <ele>172.69</ele>
        <time>2014-11-23T09:28:45Z</time>
      </trkpt>
      <trkpt lat="48.81453" lon="1.97605">
        <ele>172.69</ele>
        <time>2014-11-23T09:29:05Z</time>
      </trkpt>
      <trkpt lat="48.81456" lon="1.97604">
        <ele>172.69</ele>
        <time>2014-11-23T09:29:33Z</time>
      </trkpt>
      <trkpt lat="48.81456" lon="1.97603">
        <ele>172.69</ele>
        <time>2014-11-23T09:30:02Z</time>
      </trkpt>
      <trkpt lat="48.81458" lon="1.97606">
        <ele>172.69</ele>
        <time>2014-11-23T09:30:31Z</time>
      </trkpt>
      <trkpt lat="48.81452" lon="1.97591">
        <ele>172.69</ele>
        <time>2014-11-23T09:30:57Z</time>
      </trkpt>
      <trkpt lat="48.81452" lon="1.97574">
        <ele>172.69</ele>
        <time>2014-11-23T09:31:17Z</time>
      </trkpt>
      <trkpt lat="48.81448" lon="1.97555">
        <ele>172.21</ele>
        <time>2014-11-23T09:31:33Z</time>
      </trkpt>
      <trkpt lat="48.81445" lon="1.97527">
        <ele>172.21</ele>
        <time>2014-11-23T09:31:51Z</time>
      </trkpt>
      <trkpt lat="48.81445" lon="1.97502">
        <ele>171.73</ele>
        <time>2014-11-23T09:32:07Z</time>
      </trkpt>
      <trkpt lat="48.81444" lon="1.97478">
        <ele>171.73</ele>
        <time>2014-11-23T09:32:23Z</time>
      </trkpt>
      <trkpt lat="48.81442" lon="1.97453">
        <ele>171.25</ele>
        <time>2014-11-23T09:32:38Z</time>
      </trkpt>
      <trkpt lat="48.81442" lon="1.97443">
        <ele>171.25</ele>
        <time>2014-11-23T09:32:45Z</time>
      </trkpt>
      <trkpt lat="48.8144" lon="1.97416">
        <ele>171.25</ele>
        <time>2014-11-23T09:33:01Z</time>
      </trkpt>
      <trkpt lat="48.8144" lon="1.97407">
        <ele>171.25</ele>
        <time>2014-11-23T09:33:07Z</time>
      </trkpt>
      <trkpt lat="48.81437" lon="1.9739">
        <ele>170.77</ele>
        <time>2014-11-23T09:33:19Z</time>
      </trkpt>
      <trkpt lat="48.81434" lon="1.97369">
        <ele>170.29</ele>
        <time>2014-11-23T09:33:33Z</time>
      </trkpt>
      <trkpt lat="48.81433" lon="1.97344">
        <ele>170.29</ele>
        <time>2014-11-23T09:33:48Z</time>
      </trkpt>
      <trkpt lat="48.81433" lon="1.97323">
        <ele>169.81</ele>
        <time>2014-11-23T09:34:00Z</time>
      </trkpt>
      <trkpt lat="48.81429" lon="1.97301">
        <ele>169.81</ele>
        <time>2014-11-23T09:34:14Z</time>
      </trkpt>
      <trkpt lat="48.81426" lon="1.97275">
        <ele>168.85</ele>
        <time>2014-11-23T09:34:29Z</time>
      </trkpt>
      <trkpt lat="48.81425" lon="1.97254">
        <ele>168.85</ele>
        <time>2014-11-23T09:34:42Z</time>
      </trkpt>
      <trkpt lat="48.81422" lon="1.97232">
        <ele>168.37</ele>
        <time>2014-11-23T09:34:56Z</time>
      </trkpt>
      <trkpt lat="48.81423" lon="1.9721">
        <ele>167.89</ele>
        <time>2014-11-23T09:35:09Z</time>
      </trkpt>
      <trkpt lat="48.8142" lon="1.97189">
        <ele>167.89</ele>
        <time>2014-11-23T09:35:23Z</time>
      </trkpt>
      <trkpt lat="48.81419" lon="1.97161">
        <ele>167.41</ele>
        <time>2014-11-23T09:35:39Z</time>
      </trkpt>
      <trkpt lat="48.81419" lon="1.97141">
        <ele>166.93</ele>
        <time>2014-11-23T09:35:50Z</time>
      </trkpt>
      <trkpt lat="48.81416" lon="1.97111">
        <ele>166.45</ele>
        <time>2014-11-23T09:36:05Z</time>
      </trkpt>
      <trkpt lat="48.81414" lon="1.97076">
        <ele>165.96</ele>
        <time>2014-11-23T09:36:24Z</time>
      </trkpt>
      <trkpt lat="48.81412" lon="1.97052">
        <ele>165.48</ele>
        <time>2014-11-23T09:36:37Z</time>
      </trkpt>
      <trkpt lat="48.81409" lon="1.9703">
        <ele>165</ele>
        <time>2014-11-23T09:36:53Z</time>
      </trkpt>
      <trkpt lat="48.81404" lon="1.97001">
        <ele>164.52</ele>
        <time>2014-11-23T09:37:10Z</time>
      </trkpt>
      <trkpt lat="48.81406" lon="1.96982">
        <ele>165</ele>
        <time>2014-11-23T09:37:27Z</time>
      </trkpt>
      <trkpt lat="48.81405" lon="1.96951">
        <ele>164.52</ele>
        <time>2014-11-23T09:37:43Z</time>
      </trkpt>
      <trkpt lat="48.81402" lon="1.96924">
        <ele>164.04</ele>
        <time>2014-11-23T09:37:58Z</time>
      </trkpt>
      <trkpt lat="48.81401" lon="1.96901">
        <ele>163.56</ele>
        <time>2014-11-23T09:38:15Z</time>
      </trkpt>
      <trkpt lat="48.81397" lon="1.96876">
        <ele>163.08</ele>
        <time>2014-11-23T09:38:32Z</time>
      </trkpt>
      <trkpt lat="48.81394" lon="1.96846">
        <ele>163.56</ele>
        <time>2014-11-23T09:38:49Z</time>
      </trkpt>
      <trkpt lat="48.81394" lon="1.96822">
        <ele>163.08</ele>
        <time>2014-11-23T09:39:04Z</time>
      </trkpt>
      <trkpt lat="48.81392" lon="1.96795">
        <ele>163.08</ele>
        <time>2014-11-23T09:39:20Z</time>
      </trkpt>
      <trkpt lat="48.8139" lon="1.96768">
        <ele>163.08</ele>
        <time>2014-11-23T09:39:36Z</time>
      </trkpt>
      <trkpt lat="48.81386" lon="1.96746">
        <ele>163.08</ele>
        <time>2014-11-23T09:39:51Z</time>
      </trkpt>
      <trkpt lat="48.81382" lon="1.96723">
        <ele>162.6</ele>
        <time>2014-11-23T09:40:07Z</time>
      </trkpt>
      <trkpt lat="48.8138" lon="1.96701">
        <ele>162.12</ele>
        <time>2014-11-23T09:40:22Z</time>
      </trkpt>
      <trkpt lat="48.81375" lon="1.96663">
        <ele>162.12</ele>
        <time>2014-11-23T09:40:41Z</time>
      </trkpt>
      <trkpt lat="48.81374" lon="1.96633">
        <ele>161.64</ele>
        <time>2014-11-23T09:41:00Z</time>
      </trkpt>
      <trkpt lat="48.81372" lon="1.96609">
        <ele>162.12</ele>
        <time>2014-11-23T09:41:16Z</time>
      </trkpt>
      <trkpt lat="48.81369" lon="1.9658">
        <ele>161.64</ele>
        <time>2014-11-23T09:41:32Z</time>
      </trkpt>
      <trkpt lat="48.8137" lon="1.9657">
        <ele>161.64</ele>
        <time>2014-11-23T09:41:48Z</time>
      </trkpt>
      <trkpt lat="48.8137" lon="1.96564">
        <ele>161.64</ele>
        <time>2014-11-23T09:42:03Z</time>
      </trkpt>
      <trkpt lat="48.81373" lon="1.96542">
        <ele>161.64</ele>
        <time>2014-11-23T09:42:17Z</time>
      </trkpt>
      <trkpt lat="48.81374" lon="1.96522">
        <ele>161.64</ele>
        <time>2014-11-23T09:42:30Z</time>
      </trkpt>
      <trkpt lat="48.81372" lon="1.96498">
        <ele>162.12</ele>
        <time>2014-11-23T09:42:47Z</time>
      </trkpt>
      <trkpt lat="48.8137" lon="1.96474">
        <ele>162.12</ele>
        <time>2014-11-23T09:43:02Z</time>
      </trkpt>
      <trkpt lat="48.81366" lon="1.96437">
        <ele>162.12</ele>
        <time>2014-11-23T09:43:21Z</time>
      </trkpt>
      <trkpt lat="48.81363" lon="1.96411">
        <ele>161.64</ele>
        <time>2014-11-23T09:43:38Z</time>
      </trkpt>
      <trkpt lat="48.8136" lon="1.96388">
        <ele>162.12</ele>
        <time>2014-11-23T09:43:53Z</time>
      </trkpt>
      <trkpt lat="48.81359" lon="1.96367">
        <ele>162.6</ele>
        <time>2014-11-23T09:44:09Z</time>
      </trkpt>
      <trkpt lat="48.81364" lon="1.96359">
        <ele>162.6</ele>
        <time>2014-11-23T09:44:26Z</time>
      </trkpt>
      <trkpt lat="48.81363" lon="1.96336">
        <ele>162.6</ele>
        <time>2014-11-23T09:44:41Z</time>
      </trkpt>
      <trkpt lat="48.81355" lon="1.96318">
        <ele>163.08</ele>
        <time>2014-11-23T09:44:53Z</time>
      </trkpt>
      <trkpt lat="48.81352" lon="1.96301">
        <ele>163.08</ele>
        <time>2014-11-23T09:45:07Z</time>
      </trkpt>
      <trkpt lat="48.81351" lon="1.96291">
        <ele>163.08</ele>
        <time>2014-11-23T09:45:22Z</time>
      </trkpt>
      <trkpt lat="48.8135" lon="1.96261">
        <ele>161.64</ele>
        <time>2014-11-23T09:45:41Z</time>
      </trkpt>
      <trkpt lat="48.81347" lon="1.96238">
        <ele>160.2</ele>
        <time>2014-11-23T09:45:59Z</time>
      </trkpt>
      <trkpt lat="48.81346" lon="1.96212">
        <ele>158.75</ele>
        <time>2014-11-23T09:46:19Z</time>
      </trkpt>
      <trkpt lat="48.81338" lon="1.9619">
        <ele>157.31</ele>
        <time>2014-11-23T09:46:37Z</time>
      </trkpt>
      <trkpt lat="48.81325" lon="1.96186">
        <ele>157.31</ele>
        <time>2014-11-23T09:46:53Z</time>
      </trkpt>
      <trkpt lat="48.81309" lon="1.96187">
        <ele>157.31</ele>
        <time>2014-11-23T09:47:08Z</time>
      </trkpt>
      <trkpt lat="48.81292" lon="1.96195">
        <ele>156.83</ele>
        <time>2014-11-23T09:47:25Z</time>
      </trkpt>
      <trkpt lat="48.81282" lon="1.96207">
        <ele>156.83</ele>
        <time>2014-11-23T09:47:42Z</time>
      </trkpt>
      <trkpt lat="48.81271" lon="1.96223">
        <ele>157.31</ele>
        <time>2014-11-23T09:47:58Z</time>
      </trkpt>
      <trkpt lat="48.81269" lon="1.9624">
        <ele>158.27</ele>
        <time>2014-11-23T09:48:14Z</time>
      </trkpt>
      <trkpt lat="48.81265" lon="1.96265">
        <ele>159.24</ele>
        <time>2014-11-23T09:48:30Z</time>
      </trkpt>
      <trkpt lat="48.8126" lon="1.96291">
        <ele>159.72</ele>
        <time>2014-11-23T09:48:43Z</time>
      </trkpt>
      <trkpt lat="48.81261" lon="1.96309">
        <ele>160.2</ele>
        <time>2014-11-23T09:48:59Z</time>
      </trkpt>
      <trkpt lat="48.81265" lon="1.96334">
        <ele>160.2</ele>
        <time>2014-11-23T09:49:15Z</time>
      </trkpt>
      <trkpt lat="48.81272" lon="1.9636">
        <ele>161.16</ele>
        <time>2014-11-23T09:49:33Z</time>
      </trkpt>
      <trkpt lat="48.81279" lon="1.96381">
        <ele>161.16</ele>
        <time>2014-11-23T09:49:48Z</time>
      </trkpt>
      <trkpt lat="48.81285" lon="1.96397">
        <ele>161.64</ele>
        <time>2014-11-23T09:50:02Z</time>
      </trkpt>
      <trkpt lat="48.8129" lon="1.96419">
        <ele>162.12</ele>
        <time>2014-11-23T09:50:17Z</time>
      </trkpt>
      <trkpt lat="48.81299" lon="1.9644">
        <ele>162.6</ele>
        <time>2014-11-23T09:50:33Z</time>
      </trkpt>
      <trkpt lat="48.81306" lon="1.96462">
        <ele>162.6</ele>
        <time>2014-11-23T09:50:48Z</time>
      </trkpt>
      <trkpt lat="48.81312" lon="1.96483">
        <ele>162.6</ele>
        <time>2014-11-23T09:51:02Z</time>
      </trkpt>
      <trkpt lat="48.81318" lon="1.96502">
        <ele>163.08</ele>
        <time>2014-11-23T09:51:17Z</time>
      </trkpt>
      <trkpt lat="48.81322" lon="1.96521">
        <ele>163.08</ele>
        <time>2014-11-23T09:51:30Z</time>
      </trkpt>
      <trkpt lat="48.81323" lon="1.96547">
        <ele>163.56</ele>
        <time>2014-11-23T09:51:45Z</time>
      </trkpt>
      <trkpt lat="48.81321" lon="1.96566">
        <ele>164.04</ele>
        <time>2014-11-23T09:51:59Z</time>
      </trkpt>
      <trkpt lat="48.81317" lon="1.96585">
        <ele>163.56</ele>
        <time>2014-11-23T09:52:13Z</time>
      </trkpt>
      <trkpt lat="48.8132" lon="1.9661">
        <ele>164.04</ele>
        <time>2014-11-23T09:52:29Z</time>
      </trkpt>
      <trkpt lat="48.81321" lon="1.96631">
        <ele>164.52</ele>
        <time>2014-11-23T09:52:42Z</time>
      </trkpt>
      <trkpt lat="48.81322" lon="1.96636">
        <ele>164.52</ele>
        <time>2014-11-23T09:52:46Z</time>
      </trkpt>
      <trkpt lat="48.81325" lon="1.96657">
        <ele>165</ele>
        <time>2014-11-23T09:53:00Z</time>
      </trkpt>
      <trkpt lat="48.81327" lon="1.96676">
        <ele>165</ele>
        <time>2014-11-23T09:53:12Z</time>
      </trkpt>
      <trkpt lat="48.81329" lon="1.96699">
        <ele>165.48</ele>
        <time>2014-11-23T09:53:28Z</time>
      </trkpt>
      <trkpt lat="48.81328" lon="1.96719">
        <ele>165.96</ele>
        <time>2014-11-23T09:53:42Z</time>
      </trkpt>
      <trkpt lat="48.81332" lon="1.96742">
        <ele>166.45</ele>
        <time>2014-11-23T09:53:56Z</time>
      </trkpt>
      <trkpt lat="48.81332" lon="1.96763">
        <ele>166.93</ele>
        <time>2014-11-23T09:54:10Z</time>
      </trkpt>
      <trkpt lat="48.81329" lon="1.96783">
        <ele>166.93</ele>
        <time>2014-11-23T09:54:22Z</time>
      </trkpt>
      <trkpt lat="48.81328" lon="1.96807">
        <ele>167.41</ele>
        <time>2014-11-23T09:54:37Z</time>
      </trkpt>
      <trkpt lat="48.81324" lon="1.96824">
        <ele>167.41</ele>
        <time>2014-11-23T09:54:50Z</time>
      </trkpt>
      <trkpt lat="48.81322" lon="1.96847">
        <ele>167.41</ele>
        <time>2014-11-23T09:55:05Z</time>
      </trkpt>
      <trkpt lat="48.81317" lon="1.96868">
        <ele>167.89</ele>
        <time>2014-11-23T09:55:19Z</time>
      </trkpt>
      <trkpt lat="48.81308" lon="1.96884">
        <ele>167.41</ele>
        <time>2014-11-23T09:55:33Z</time>
      </trkpt>
      <trkpt lat="48.81301" lon="1.96904">
        <ele>167.41</ele>
        <time>2014-11-23T09:55:48Z</time>
      </trkpt>
      <trkpt lat="48.81292" lon="1.96925">
        <ele>167.89</ele>
        <time>2014-11-23T09:56:03Z</time>
      </trkpt>
      <trkpt lat="48.81287" lon="1.96942">
        <ele>167.89</ele>
        <time>2014-11-23T09:56:16Z</time>
      </trkpt>
      <trkpt lat="48.81277" lon="1.9696">
        <ele>167.41</ele>
        <time>2014-11-23T09:56:31Z</time>
      </trkpt>
      <trkpt lat="48.8127" lon="1.96982">
        <ele>166.93</ele>
        <time>2014-11-23T09:56:46Z</time>
      </trkpt>
      <trkpt lat="48.81262" lon="1.97002">
        <ele>166.93</ele>
        <time>2014-11-23T09:57:00Z</time>
      </trkpt>
      <trkpt lat="48.81255" lon="1.97025">
        <ele>166.93</ele>
        <time>2014-11-23T09:57:15Z</time>
      </trkpt>
      <trkpt lat="48.81248" lon="1.9704">
        <ele>165.96</ele>
        <time>2014-11-23T09:57:28Z</time>
      </trkpt>
      <trkpt lat="48.81241" lon="1.9705">
        <ele>165.48</ele>
        <time>2014-11-23T09:57:38Z</time>
      </trkpt>
      <trkpt lat="48.81231" lon="1.97063">
        <ele>165</ele>
        <time>2014-11-23T09:57:52Z</time>
      </trkpt>
      <trkpt lat="48.81221" lon="1.97077">
        <ele>165.48</ele>
        <time>2014-11-23T09:58:04Z</time>
      </trkpt>
      <trkpt lat="48.81204" lon="1.97088">
        <ele>164.52</ele>
        <time>2014-11-23T09:58:21Z</time>
      </trkpt>
      <trkpt lat="48.81187" lon="1.97093">
        <ele>165.48</ele>
        <time>2014-11-23T09:58:36Z</time>
      </trkpt>
      <trkpt lat="48.81173" lon="1.97099">
        <ele>165</ele>
        <time>2014-11-23T09:58:50Z</time>
      </trkpt>
      <trkpt lat="48.81153" lon="1.97107">
        <ele>165.48</ele>
        <time>2014-11-23T09:59:09Z</time>
      </trkpt>
      <trkpt lat="48.81137" lon="1.97117">
        <ele>165</ele>
        <time>2014-11-23T09:59:28Z</time>
      </trkpt>
      <trkpt lat="48.81127" lon="1.97127">
        <ele>165.48</ele>
        <time>2014-11-23T09:59:41Z</time>
      </trkpt>
      <trkpt lat="48.81117" lon="1.97135">
        <ele>165</ele>
        <time>2014-11-23T09:59:55Z</time>
      </trkpt>
      <trkpt lat="48.81104" lon="1.97147">
        <ele>165</ele>
        <time>2014-11-23T10:00:10Z</time>
      </trkpt>
      <trkpt lat="48.81086" lon="1.97153">
        <ele>165</ele>
        <time>2014-11-23T10:00:30Z</time>
      </trkpt>
      <trkpt lat="48.81066" lon="1.97148">
        <ele>164.52</ele>
        <time>2014-11-23T10:00:49Z</time>
      </trkpt>
      <trkpt lat="48.81048" lon="1.97146">
        <ele>164.04</ele>
        <time>2014-11-23T10:01:05Z</time>
      </trkpt>
      <trkpt lat="48.81029" lon="1.97146">
        <ele>163.56</ele>
        <time>2014-11-23T10:01:23Z</time>
      </trkpt>
      <trkpt lat="48.81018" lon="1.97153">
        <ele>163.56</ele>
        <time>2014-11-23T10:01:41Z</time>
      </trkpt>
      <trkpt lat="48.81009" lon="1.97175">
        <ele>163.08</ele>
        <time>2014-11-23T10:01:56Z</time>
      </trkpt>
      <trkpt lat="48.80999" lon="1.97195">
        <ele>163.56</ele>
        <time>2014-11-23T10:02:11Z</time>
      </trkpt>
      <trkpt lat="48.80991" lon="1.97217">
        <ele>163.08</ele>
        <time>2014-11-23T10:02:27Z</time>
      </trkpt>
      <trkpt lat="48.80982" lon="1.97238">
        <ele>162.6</ele>
        <time>2014-11-23T10:02:43Z</time>
      </trkpt>
      <trkpt lat="48.80976" lon="1.97256">
        <ele>162.6</ele>
        <time>2014-11-23T10:02:56Z</time>
      </trkpt>
      <trkpt lat="48.80969" lon="1.97277">
        <ele>161.64</ele>
        <time>2014-11-23T10:03:12Z</time>
      </trkpt>
      <trkpt lat="48.80973" lon="1.97308">
        <ele>161.16</ele>
        <time>2014-11-23T10:03:30Z</time>
      </trkpt>
      <trkpt lat="48.80977" lon="1.97316">
        <ele>161.16</ele>
        <time>2014-11-23T10:03:52Z</time>
      </trkpt>
      <trkpt lat="48.80977" lon="1.97313">
        <ele>160.68</ele>
        <time>2014-11-23T10:04:17Z</time>
      </trkpt>
      <trkpt lat="48.80974" lon="1.97314">
        <ele>160.68</ele>
        <time>2014-11-23T10:04:45Z</time>
      </trkpt>
      <trkpt lat="48.80972" lon="1.97311">
        <ele>161.16</ele>
        <time>2014-11-23T10:05:17Z</time>
      </trkpt>
      <trkpt lat="48.80973" lon="1.97312">
        <ele>161.16</ele>
        <time>2014-11-23T10:05:43Z</time>
      </trkpt>
      <trkpt lat="48.80976" lon="1.97311">
        <ele>160.68</ele>
        <time>2014-11-23T10:06:17Z</time>
      </trkpt>
      <trkpt lat="48.80974" lon="1.97311">
        <ele>160.2</ele>
        <time>2014-11-23T10:06:46Z</time>
      </trkpt>
      <trkpt lat="48.80975" lon="1.97317">
        <ele>160.68</ele>
        <time>2014-11-23T10:07:17Z</time>
      </trkpt>
      <trkpt lat="48.80974" lon="1.97318">
        <ele>160.2</ele>
        <time>2014-11-23T10:07:52Z</time>
      </trkpt>
      <trkpt lat="48.80972" lon="1.97319">
        <ele>160.2</ele>
        <time>2014-11-23T10:08:23Z</time>
      </trkpt>
      <trkpt lat="48.80977" lon="1.97322">
        <ele>160.2</ele>
        <time>2014-11-23T10:08:52Z</time>
      </trkpt>
      <trkpt lat="48.80973" lon="1.9732">
        <ele>160.2</ele>
        <time>2014-11-23T10:09:27Z</time>
      </trkpt>
      <trkpt lat="48.80974" lon="1.97316">
        <ele>160.2</ele>
        <time>2014-11-23T10:09:55Z</time>
      </trkpt>
      <trkpt lat="48.80972" lon="1.97318">
        <ele>160.68</ele>
        <time>2014-11-23T10:10:23Z</time>
      </trkpt>
      <trkpt lat="48.80977" lon="1.97327">
        <ele>160.68</ele>
        <time>2014-11-23T10:10:50Z</time>
      </trkpt>
      <trkpt lat="48.80986" lon="1.97336">
        <ele>161.16</ele>
        <time>2014-11-23T10:11:08Z</time>
      </trkpt>
      <trkpt lat="48.81001" lon="1.97338">
        <ele>162.12</ele>
        <time>2014-11-23T10:11:24Z</time>
      </trkpt>
      <trkpt lat="48.81013" lon="1.97339">
        <ele>163.08</ele>
        <time>2014-11-23T10:11:43Z</time>
      </trkpt>
      <trkpt lat="48.81027" lon="1.9734">
        <ele>163.56</ele>
        <time>2014-11-23T10:11:57Z</time>
      </trkpt>
      <trkpt lat="48.81042" lon="1.97345">
        <ele>164.04</ele>
        <time>2014-11-23T10:12:13Z</time>
      </trkpt>
      <trkpt lat="48.81059" lon="1.9735">
        <ele>165</ele>
        <time>2014-11-23T10:12:30Z</time>
      </trkpt>
      <trkpt lat="48.81074" lon="1.97355">
        <ele>165.48</ele>
        <time>2014-11-23T10:12:46Z</time>
      </trkpt>
      <trkpt lat="48.81093" lon="1.97363">
        <ele>165.96</ele>
        <time>2014-11-23T10:13:05Z</time>
      </trkpt>
      <trkpt lat="48.81112" lon="1.9737">
        <ele>166.45</ele>
        <time>2014-11-23T10:13:23Z</time>
      </trkpt>
      <trkpt lat="48.81129" lon="1.97376">
        <ele>166.93</ele>
        <time>2014-11-23T10:13:40Z</time>
      </trkpt>
      <trkpt lat="48.81144" lon="1.97382">
        <ele>167.41</ele>
        <time>2014-11-23T10:13:56Z</time>
      </trkpt>
      <trkpt lat="48.81157" lon="1.97392">
        <ele>167.89</ele>
        <time>2014-11-23T10:14:13Z</time>
      </trkpt>
      <trkpt lat="48.8117" lon="1.97401">
        <ele>167.89</ele>
        <time>2014-11-23T10:14:26Z</time>
      </trkpt>
      <trkpt lat="48.81185" lon="1.9741">
        <ele>168.37</ele>
        <time>2014-11-23T10:14:41Z</time>
      </trkpt>
      <trkpt lat="48.81199" lon="1.97415">
        <ele>168.37</ele>
        <time>2014-11-23T10:14:57Z</time>
      </trkpt>
      <trkpt lat="48.81214" lon="1.97425">
        <ele>169.33</ele>
        <time>2014-11-23T10:15:13Z</time>
      </trkpt>
      <trkpt lat="48.81228" lon="1.97434">
        <ele>169.81</ele>
        <time>2014-11-23T10:15:30Z</time>
      </trkpt>
      <trkpt lat="48.81244" lon="1.97444">
        <ele>169.81</ele>
        <time>2014-11-23T10:15:46Z</time>
      </trkpt>
      <trkpt lat="48.81252" lon="1.97449">
        <ele>170.29</ele>
        <time>2014-11-23T10:16:06Z</time>
      </trkpt>
      <trkpt lat="48.81249" lon="1.97465">
        <ele>170.29</ele>
        <time>2014-11-23T10:16:19Z</time>
      </trkpt>
      <trkpt lat="48.8124" lon="1.97487">
        <ele>169.81</ele>
        <time>2014-11-23T10:16:36Z</time>
      </trkpt>
      <trkpt lat="48.81234" lon="1.97504">
        <ele>169.81</ele>
        <time>2014-11-23T10:16:51Z</time>
      </trkpt>
      <trkpt lat="48.81226" lon="1.97524">
        <ele>169.33</ele>
        <time>2014-11-23T10:17:08Z</time>
      </trkpt>
      <trkpt lat="48.81215" lon="1.97551">
        <ele>169.33</ele>
        <time>2014-11-23T10:17:27Z</time>
      </trkpt>
      <trkpt lat="48.81211" lon="1.9756">
        <ele>168.85</ele>
        <time>2014-11-23T10:17:42Z</time>
      </trkpt>
      <trkpt lat="48.81208" lon="1.9756">
        <ele>168.85</ele>
        <time>2014-11-23T10:18:08Z</time>
      </trkpt>
      <trkpt lat="48.81202" lon="1.97567">
        <ele>168.85</ele>
        <time>2014-11-23T10:18:26Z</time>
      </trkpt>
      <trkpt lat="48.81196" lon="1.97584">
        <ele>168.85</ele>
        <time>2014-11-23T10:18:42Z</time>
      </trkpt>
      <trkpt lat="48.81186" lon="1.97607">
        <ele>168.37</ele>
        <time>2014-11-23T10:19:01Z</time>
      </trkpt>
      <trkpt lat="48.81183" lon="1.97619">
        <ele>167.89</ele>
        <time>2014-11-23T10:19:09Z</time>
      </trkpt>
      <trkpt lat="48.81174" lon="1.97637">
        <ele>168.37</ele>
        <time>2014-11-23T10:19:25Z</time>
      </trkpt>
      <trkpt lat="48.81166" lon="1.97659">
        <ele>167.89</ele>
        <time>2014-11-23T10:19:38Z</time>
      </trkpt>
      <trkpt lat="48.81158" lon="1.97682">
        <ele>167.89</ele>
        <time>2014-11-23T10:19:53Z</time>
      </trkpt>
      <trkpt lat="48.81157" lon="1.97683">
        <ele>167.89</ele>
        <time>2014-11-23T10:19:54Z</time>
      </trkpt>
      <trkpt lat="48.81149" lon="1.97703">
        <ele>167.89</ele>
        <time>2014-11-23T10:20:11Z</time>
      </trkpt>
      <trkpt lat="48.81137" lon="1.97727">
        <ele>167.89</ele>
        <time>2014-11-23T10:20:28Z</time>
      </trkpt>
      <trkpt lat="48.81128" lon="1.97752">
        <ele>168.37</ele>
        <time>2014-11-23T10:20:44Z</time>
      </trkpt>
      <trkpt lat="48.8112" lon="1.97771">
        <ele>167.89</ele>
        <time>2014-11-23T10:20:59Z</time>
      </trkpt>
      <trkpt lat="48.81112" lon="1.97793">
        <ele>167.89</ele>
        <time>2014-11-23T10:21:14Z</time>
      </trkpt>
      <trkpt lat="48.81104" lon="1.97815">
        <ele>168.37</ele>
        <time>2014-11-23T10:21:30Z</time>
      </trkpt>
      <trkpt lat="48.81093" lon="1.97835">
        <ele>167.89</ele>
        <time>2014-11-23T10:21:48Z</time>
      </trkpt>
      <trkpt lat="48.81083" lon="1.97854">
        <ele>168.37</ele>
        <time>2014-11-23T10:22:03Z</time>
      </trkpt>
      <trkpt lat="48.81075" lon="1.97871">
        <ele>168.37</ele>
        <time>2014-11-23T10:22:13Z</time>
      </trkpt>
      <trkpt lat="48.81072" lon="1.97878">
        <ele>168.37</ele>
        <time>2014-11-23T10:22:17Z</time>
      </trkpt>
      <trkpt lat="48.81066" lon="1.97896">
        <ele>168.37</ele>
        <time>2014-11-23T10:22:28Z</time>
      </trkpt>
      <trkpt lat="48.81064" lon="1.97899">
        <ele>168.85</ele>
        <time>2014-11-23T10:22:31Z</time>
      </trkpt>
      <trkpt lat="48.81056" lon="1.97919">
        <ele>168.85</ele>
        <time>2014-11-23T10:22:45Z</time>
      </trkpt>
      <trkpt lat="48.81048" lon="1.97944">
        <ele>169.33</ele>
        <time>2014-11-23T10:23:02Z</time>
      </trkpt>
      <trkpt lat="48.81041" lon="1.9796">
        <ele>169.33</ele>
        <time>2014-11-23T10:23:15Z</time>
      </trkpt>
      <trkpt lat="48.81033" lon="1.97979">
        <ele>169.33</ele>
        <time>2014-11-23T10:23:30Z</time>
      </trkpt>
      <trkpt lat="48.81026" lon="1.98002">
        <ele>169.81</ele>
        <time>2014-11-23T10:23:46Z</time>
      </trkpt>
      <trkpt lat="48.81013" lon="1.98028">
        <ele>169.81</ele>
        <time>2014-11-23T10:24:02Z</time>
      </trkpt>
      <trkpt lat="48.81005" lon="1.98049">
        <ele>170.29</ele>
        <time>2014-11-23T10:24:15Z</time>
      </trkpt>
      <trkpt lat="48.81001" lon="1.98055">
        <ele>170.29</ele>
        <time>2014-11-23T10:24:21Z</time>
      </trkpt>
      <trkpt lat="48.80992" lon="1.98073">
        <ele>170.29</ele>
        <time>2014-11-23T10:24:36Z</time>
      </trkpt>
      <trkpt lat="48.80988" lon="1.98087">
        <ele>169.81</ele>
        <time>2014-11-23T10:24:50Z</time>
      </trkpt>
      <trkpt lat="48.80981" lon="1.98104">
        <ele>170.29</ele>
        <time>2014-11-23T10:25:04Z</time>
      </trkpt>
      <trkpt lat="48.80972" lon="1.98119">
        <ele>170.29</ele>
        <time>2014-11-23T10:25:19Z</time>
      </trkpt>
      <trkpt lat="48.80965" lon="1.98143">
        <ele>169.81</ele>
        <time>2014-11-23T10:25:36Z</time>
      </trkpt>
      <trkpt lat="48.80956" lon="1.9816">
        <ele>169.81</ele>
        <time>2014-11-23T10:25:50Z</time>
      </trkpt>
      <trkpt lat="48.8095" lon="1.98176">
        <ele>169.81</ele>
        <time>2014-11-23T10:26:04Z</time>
      </trkpt>
      <trkpt lat="48.80942" lon="1.98201">
        <ele>169.81</ele>
        <time>2014-11-23T10:26:21Z</time>
      </trkpt>
      <trkpt lat="48.80933" lon="1.98221">
        <ele>169.81</ele>
        <time>2014-11-23T10:26:37Z</time>
      </trkpt>
      <trkpt lat="48.80925" lon="1.98239">
        <ele>170.29</ele>
        <time>2014-11-23T10:26:52Z</time>
      </trkpt>
      <trkpt lat="48.80919" lon="1.98252">
        <ele>169.81</ele>
        <time>2014-11-23T10:27:01Z</time>
      </trkpt>
      <trkpt lat="48.80908" lon="1.98274">
        <ele>170.29</ele>
        <time>2014-11-23T10:27:17Z</time>
      </trkpt>
      <trkpt lat="48.80901" lon="1.98289">
        <ele>169.81</ele>
        <time>2014-11-23T10:27:32Z</time>
      </trkpt>
      <trkpt lat="48.8089" lon="1.98306">
        <ele>169.81</ele>
        <time>2014-11-23T10:27:48Z</time>
      </trkpt>
      <trkpt lat="48.80883" lon="1.98321">
        <ele>170.29</ele>
        <time>2014-11-23T10:28:02Z</time>
      </trkpt>
      <trkpt lat="48.80875" lon="1.98347">
        <ele>169.81</ele>
        <time>2014-11-23T10:28:19Z</time>
      </trkpt>
      <trkpt lat="48.80875" lon="1.98352">
        <ele>169.81</ele>
        <time>2014-11-23T10:28:22Z</time>
      </trkpt>
      <trkpt lat="48.80874" lon="1.98373">
        <ele>170.29</ele>
        <time>2014-11-23T10:28:36Z</time>
      </trkpt>
      <trkpt lat="48.80867" lon="1.98402">
        <ele>169.81</ele>
        <time>2014-11-23T10:28:55Z</time>
      </trkpt>
      <trkpt lat="48.80864" lon="1.98427">
        <ele>170.29</ele>
        <time>2014-11-23T10:29:11Z</time>
      </trkpt>
      <trkpt lat="48.80862" lon="1.98452">
        <ele>170.29</ele>
        <time>2014-11-23T10:29:27Z</time>
      </trkpt>
      <trkpt lat="48.8086" lon="1.98473">
        <ele>170.29</ele>
        <time>2014-11-23T10:29:41Z</time>
      </trkpt>
      <trkpt lat="48.80856" lon="1.98499">
        <ele>169.81</ele>
        <time>2014-11-23T10:29:58Z</time>
      </trkpt>
      <trkpt lat="48.80841" lon="1.98517">
        <ele>170.29</ele>
        <time>2014-11-23T10:30:14Z</time>
      </trkpt>
      <trkpt lat="48.80826" lon="1.98533">
        <ele>169.81</ele>
        <time>2014-11-23T10:30:30Z</time>
      </trkpt>
      <trkpt lat="48.80812" lon="1.98545">
        <ele>169.81</ele>
        <time>2014-11-23T10:30:47Z</time>
      </trkpt>
      <trkpt lat="48.80801" lon="1.98556">
        <ele>169.81</ele>
        <time>2014-11-23T10:31:00Z</time>
      </trkpt>
      <trkpt lat="48.80788" lon="1.98566">
        <ele>169.81</ele>
        <time>2014-11-23T10:31:14Z</time>
      </trkpt>
      <trkpt lat="48.80775" lon="1.98579">
        <ele>169.81</ele>
        <time>2014-11-23T10:31:27Z</time>
      </trkpt>
      <trkpt lat="48.80771" lon="1.98584">
        <ele>169.81</ele>
        <time>2014-11-23T10:31:31Z</time>
      </trkpt>
      <trkpt lat="48.80759" lon="1.98596">
        <ele>169.33</ele>
        <time>2014-11-23T10:31:45Z</time>
      </trkpt>
      <trkpt lat="48.80756" lon="1.98599">
        <ele>169.81</ele>
        <time>2014-11-23T10:31:48Z</time>
      </trkpt>
      <trkpt lat="48.80742" lon="1.98612">
        <ele>169.33</ele>
        <time>2014-11-23T10:32:02Z</time>
      </trkpt>
      <trkpt lat="48.80726" lon="1.98624">
        <ele>169.33</ele>
        <time>2014-11-23T10:32:19Z</time>
      </trkpt>
      <trkpt lat="48.80713" lon="1.98635">
        <ele>169.33</ele>
        <time>2014-11-23T10:32:32Z</time>
      </trkpt>
      <trkpt lat="48.807" lon="1.98646">
        <ele>168.85</ele>
        <time>2014-11-23T10:32:46Z</time>
      </trkpt>
      <trkpt lat="48.80686" lon="1.98663">
        <ele>168.85</ele>
        <time>2014-11-23T10:33:01Z</time>
      </trkpt>
      <trkpt lat="48.80675" lon="1.98672">
        <ele>168.85</ele>
        <time>2014-11-23T10:33:14Z</time>
      </trkpt>
      <trkpt lat="48.80665" lon="1.98684">
        <ele>168.85</ele>
        <time>2014-11-23T10:33:29Z</time>
      </trkpt>
      <trkpt lat="48.8065" lon="1.98695">
        <ele>168.85</ele>
        <time>2014-11-23T10:33:46Z</time>
      </trkpt>
      <trkpt lat="48.80632" lon="1.98708">
        <ele>168.85</ele>
        <time>2014-11-23T10:34:03Z</time>
      </trkpt>
      <trkpt lat="48.80621" lon="1.9872">
        <ele>168.37</ele>
        <time>2014-11-23T10:34:16Z</time>
      </trkpt>
      <trkpt lat="48.80608" lon="1.98734">
        <ele>168.37</ele>
        <time>2014-11-23T10:34:31Z</time>
      </trkpt>
      <trkpt lat="48.80589" lon="1.98755">
        <ele>167.89</ele>
        <time>2014-11-23T10:34:50Z</time>
      </trkpt>
      <trkpt lat="48.80573" lon="1.98771">
        <ele>167.41</ele>
        <time>2014-11-23T10:35:07Z</time>
      </trkpt>
      <trkpt lat="48.80565" lon="1.98779">
        <ele>166.93</ele>
        <time>2014-11-23T10:35:16Z</time>
      </trkpt>
      <trkpt lat="48.8055" lon="1.98791">
        <ele>166.45</ele>
        <time>2014-11-23T10:35:31Z</time>
      </trkpt>
      <trkpt lat="48.80539" lon="1.98805">
        <ele>166.45</ele>
        <time>2014-11-23T10:35:45Z</time>
      </trkpt>
      <trkpt lat="48.80526" lon="1.98817">
        <ele>165.96</ele>
        <time>2014-11-23T10:35:59Z</time>
      </trkpt>
      <trkpt lat="48.80511" lon="1.98834">
        <ele>164.52</ele>
        <time>2014-11-23T10:36:17Z</time>
      </trkpt>
      <trkpt lat="48.80497" lon="1.98843">
        <ele>163.56</ele>
        <time>2014-11-23T10:36:34Z</time>
      </trkpt>
      <trkpt lat="48.80476" lon="1.98846">
        <ele>162.6</ele>
        <time>2014-11-23T10:36:53Z</time>
      </trkpt>
      <trkpt lat="48.80463" lon="1.98849">
        <ele>162.12</ele>
        <time>2014-11-23T10:37:10Z</time>
      </trkpt>
      <trkpt lat="48.80445" lon="1.98856">
        <ele>162.12</ele>
        <time>2014-11-23T10:37:30Z</time>
      </trkpt>
      <trkpt lat="48.8044" lon="1.98856">
        <ele>162.12</ele>
        <time>2014-11-23T10:37:35Z</time>
      </trkpt>
      <trkpt lat="48.80421" lon="1.98864">
        <ele>163.08</ele>
        <time>2014-11-23T10:37:52Z</time>
      </trkpt>
      <trkpt lat="48.80406" lon="1.98871">
        <ele>163.56</ele>
        <time>2014-11-23T10:38:09Z</time>
      </trkpt>
      <trkpt lat="48.80389" lon="1.9888">
        <ele>164.04</ele>
        <time>2014-11-23T10:38:25Z</time>
      </trkpt>
      <trkpt lat="48.80375" lon="1.98891">
        <ele>164.52</ele>
        <time>2014-11-23T10:38:40Z</time>
      </trkpt>
      <trkpt lat="48.8037" lon="1.98894">
        <ele>164.52</ele>
        <time>2014-11-23T10:38:44Z</time>
      </trkpt>
      <trkpt lat="48.80372" lon="1.98918">
        <ele>165</ele>
        <time>2014-11-23T10:39:00Z</time>
      </trkpt>
      <trkpt lat="48.80373" lon="1.98942">
        <ele>165</ele>
        <time>2014-11-23T10:39:15Z</time>
      </trkpt>
      <trkpt lat="48.80374" lon="1.98964">
        <ele>165</ele>
        <time>2014-11-23T10:39:29Z</time>
      </trkpt>
      <trkpt lat="48.80378" lon="1.98986">
        <ele>165</ele>
        <time>2014-11-23T10:39:46Z</time>
      </trkpt>
      <trkpt lat="48.80378" lon="1.99008">
        <ele>165</ele>
        <time>2014-11-23T10:40:00Z</time>
      </trkpt>
      <trkpt lat="48.80382" lon="1.9903">
        <ele>165.48</ele>
        <time>2014-11-23T10:40:16Z</time>
      </trkpt>
      <trkpt lat="48.80384" lon="1.99055">
        <ele>165.48</ele>
        <time>2014-11-23T10:40:32Z</time>
      </trkpt>
      <trkpt lat="48.80383" lon="1.99071">
        <ele>165.96</ele>
        <time>2014-11-23T10:40:45Z</time>
      </trkpt>
      <trkpt lat="48.80385" lon="1.99073">
        <ele>165.48</ele>
        <time>2014-11-23T10:41:04Z</time>
      </trkpt>
      <trkpt lat="48.80387" lon="1.99075">
        <ele>165.48</ele>
        <time>2014-11-23T10:41:28Z</time>
      </trkpt>
      <trkpt lat="48.80388" lon="1.99075">
        <ele>165</ele>
        <time>2014-11-23T10:41:57Z</time>
      </trkpt>
      <trkpt lat="48.80383" lon="1.9908">
        <ele>165</ele>
        <time>2014-11-23T10:42:22Z</time>
      </trkpt>
      <trkpt lat="48.80382" lon="1.99081">
        <ele>165</ele>
        <time>2014-11-23T10:42:41Z</time>
      </trkpt>
      <trkpt lat="48.80384" lon="1.99081">
        <ele>165</ele>
        <time>2014-11-23T10:43:05Z</time>
      </trkpt>
      <trkpt lat="48.80394" lon="1.99085">
        <ele>165</ele>
        <time>2014-11-23T10:43:37Z</time>
      </trkpt>
      <trkpt lat="48.80387" lon="1.99082">
        <ele>165.48</ele>
        <time>2014-11-23T10:44:09Z</time>
      </trkpt>
      <trkpt lat="48.80386" lon="1.99085">
        <ele>165.48</ele>
        <time>2014-11-23T10:44:46Z</time>
      </trkpt>
      <trkpt lat="48.80383" lon="1.99083">
        <ele>165.48</ele>
        <time>2014-11-23T10:44:55Z</time>
      </trkpt>
      <trkpt lat="48.8038" lon="1.99098">
        <ele>165.48</ele>
        <time>2014-11-23T10:45:12Z</time>
      </trkpt>
      <trkpt lat="48.80376" lon="1.99117">
        <ele>165.96</ele>
        <time>2014-11-23T10:45:28Z</time>
      </trkpt>
      <trkpt lat="48.80371" lon="1.99136">
        <ele>165.96</ele>
        <time>2014-11-23T10:45:46Z</time>
      </trkpt>
      <trkpt lat="48.80368" lon="1.99157">
        <ele>166.45</ele>
        <time>2014-11-23T10:46:01Z</time>
      </trkpt>
      <trkpt lat="48.80364" lon="1.99173">
        <ele>166.45</ele>
        <time>2014-11-23T10:46:16Z</time>
      </trkpt>
      <trkpt lat="48.80359" lon="1.99191">
        <ele>166.45</ele>
        <time>2014-11-23T10:46:33Z</time>
      </trkpt>
      <trkpt lat="48.80355" lon="1.99213">
        <ele>166.45</ele>
        <time>2014-11-23T10:46:50Z</time>
      </trkpt>
      <trkpt lat="48.8035" lon="1.99234">
        <ele>166.93</ele>
        <time>2014-11-23T10:47:05Z</time>
      </trkpt>
      <trkpt lat="48.80348" lon="1.9924">
        <ele>166.45</ele>
        <time>2014-11-23T10:47:09Z</time>
      </trkpt>
      <trkpt lat="48.80343" lon="1.99264">
        <ele>166.93</ele>
        <time>2014-11-23T10:47:24Z</time>
      </trkpt>
      <trkpt lat="48.8034" lon="1.99284">
        <ele>166.45</ele>
        <time>2014-11-23T10:47:39Z</time>
      </trkpt>
      <trkpt lat="48.80334" lon="1.99306">
        <ele>166.93</ele>
        <time>2014-11-23T10:47:55Z</time>
      </trkpt>
      <trkpt lat="48.80329" lon="1.9933">
        <ele>166.93</ele>
        <time>2014-11-23T10:48:12Z</time>
      </trkpt>
      <trkpt lat="48.80325" lon="1.99354">
        <ele>166.93</ele>
        <time>2014-11-23T10:48:28Z</time>
      </trkpt>
      <trkpt lat="48.80323" lon="1.99383">
        <ele>166.93</ele>
        <time>2014-11-23T10:48:44Z</time>
      </trkpt>
      <trkpt lat="48.80323" lon="1.99409">
        <ele>166.93</ele>
        <time>2014-11-23T10:48:59Z</time>
      </trkpt>
      <trkpt lat="48.80321" lon="1.99437">
        <ele>167.41</ele>
        <time>2014-11-23T10:49:15Z</time>
      </trkpt>
      <trkpt lat="48.8032" lon="1.9946">
        <ele>167.41</ele>
        <time>2014-11-23T10:49:31Z</time>
      </trkpt>
      <trkpt lat="48.80319" lon="1.99478">
        <ele>167.41</ele>
        <time>2014-11-23T10:49:46Z</time>
      </trkpt>
      <trkpt lat="48.80315" lon="1.99506">
        <ele>167.89</ele>
        <time>2014-11-23T10:50:05Z</time>
      </trkpt>
      <trkpt lat="48.80313" lon="1.99538">
        <ele>167.89</ele>
        <time>2014-11-23T10:50:23Z</time>
      </trkpt>
      <trkpt lat="48.8031" lon="1.99566">
        <ele>167.89</ele>
        <time>2014-11-23T10:50:40Z</time>
      </trkpt>
      <trkpt lat="48.80306" lon="1.9959">
        <ele>167.89</ele>
        <time>2014-11-23T10:50:55Z</time>
      </trkpt>
      <trkpt lat="48.80308" lon="1.99601">
        <ele>167.89</ele>
        <time>2014-11-23T10:51:02Z</time>
      </trkpt>
      <trkpt lat="48.80307" lon="1.99625">
        <ele>167.89</ele>
        <time>2014-11-23T10:51:20Z</time>
      </trkpt>
      <trkpt lat="48.80305" lon="1.99648">
        <ele>168.37</ele>
        <time>2014-11-23T10:51:34Z</time>
      </trkpt>
      <trkpt lat="48.80304" lon="1.99669">
        <ele>167.89</ele>
        <time>2014-11-23T10:51:49Z</time>
      </trkpt>
      <trkpt lat="48.80299" lon="1.99689">
        <ele>167.89</ele>
        <time>2014-11-23T10:52:01Z</time>
      </trkpt>
      <trkpt lat="48.80299" lon="1.99708">
        <ele>167.89</ele>
        <time>2014-11-23T10:52:15Z</time>
      </trkpt>
      <trkpt lat="48.80316" lon="1.99715">
        <ele>167.89</ele>
        <time>2014-11-23T10:52:32Z</time>
      </trkpt>
      <trkpt lat="48.80336" lon="1.9972">
        <ele>167.41</ele>
        <time>2014-11-23T10:52:49Z</time>
      </trkpt>
      <trkpt lat="48.80351" lon="1.99724">
        <ele>167.89</ele>
        <time>2014-11-23T10:53:05Z</time>
      </trkpt>
      <trkpt lat="48.80369" lon="1.99733">
        <ele>167.89</ele>
        <time>2014-11-23T10:53:23Z</time>
      </trkpt>
      <trkpt lat="48.80387" lon="1.99733">
        <ele>167.41</ele>
        <time>2014-11-23T10:53:40Z</time>
      </trkpt>
      <trkpt lat="48.80404" lon="1.99737">
        <ele>167.89</ele>
        <time>2014-11-23T10:53:57Z</time>
      </trkpt>
      <trkpt lat="48.80423" lon="1.99742">
        <ele>167.41</ele>
        <time>2014-11-23T10:54:16Z</time>
      </trkpt>
      <trkpt lat="48.80444" lon="1.99749">
        <ele>167.41</ele>
        <time>2014-11-23T10:54:37Z</time>
      </trkpt>
      <trkpt lat="48.80462" lon="1.99754">
        <ele>167.41</ele>
        <time>2014-11-23T10:54:53Z</time>
      </trkpt>
      <trkpt lat="48.80479" lon="1.99757">
        <ele>167.41</ele>
        <time>2014-11-23T10:55:09Z</time>
      </trkpt>
      <trkpt lat="48.80487" lon="1.99758">
        <ele>167.89</ele>
        <time>2014-11-23T10:55:18Z</time>
      </trkpt>
      <trkpt lat="48.80502" lon="1.99767">
        <ele>167.89</ele>
        <time>2014-11-23T10:55:35Z</time>
      </trkpt>
      <trkpt lat="48.80523" lon="1.9977">
        <ele>167.41</ele>
        <time>2014-11-23T10:55:54Z</time>
      </trkpt>
      <trkpt lat="48.80544" lon="1.99775">
        <ele>167.41</ele>
        <time>2014-11-23T10:56:13Z</time>
      </trkpt>
      <trkpt lat="48.80563" lon="1.9978">
        <ele>167.41</ele>
        <time>2014-11-23T10:56:33Z</time>
      </trkpt>
      <trkpt lat="48.80585" lon="1.99786">
        <ele>167.89</ele>
        <time>2014-11-23T10:56:52Z</time>
      </trkpt>
      <trkpt lat="48.80604" lon="1.99793">
        <ele>167.89</ele>
        <time>2014-11-23T10:57:10Z</time>
      </trkpt>
      <trkpt lat="48.80625" lon="1.99798">
        <ele>167.41</ele>
        <time>2014-11-23T10:57:30Z</time>
      </trkpt>
      <trkpt lat="48.80648" lon="1.99803">
        <ele>167.41</ele>
        <time>2014-11-23T10:57:52Z</time>
      </trkpt>
      <trkpt lat="48.80664" lon="1.99807">
        <ele>167.41</ele>
        <time>2014-11-23T10:58:07Z</time>
      </trkpt>
      <trkpt lat="48.80679" lon="1.99813">
        <ele>166.93</ele>
        <time>2014-11-23T10:58:24Z</time>
      </trkpt>
      <trkpt lat="48.80702" lon="1.99815">
        <ele>166.93</ele>
        <time>2014-11-23T10:58:43Z</time>
      </trkpt>
      <trkpt lat="48.80721" lon="1.99821">
        <ele>166.93</ele>
        <time>2014-11-23T10:59:01Z</time>
      </trkpt>
      <trkpt lat="48.80739" lon="1.99827">
        <ele>166.45</ele>
        <time>2014-11-23T10:59:19Z</time>
      </trkpt>
      <trkpt lat="48.80758" lon="1.99828">
        <ele>166.93</ele>
        <time>2014-11-23T10:59:37Z</time>
      </trkpt>
      <trkpt lat="48.80778" lon="1.99835">
        <ele>166.93</ele>
        <time>2014-11-23T10:59:55Z</time>
      </trkpt>
      <trkpt lat="48.80797" lon="1.99846">
        <ele>166.93</ele>
        <time>2014-11-23T11:00:15Z</time>
      </trkpt>
      <trkpt lat="48.80812" lon="1.99843">
        <ele>167.41</ele>
        <time>2014-11-23T11:00:32Z</time>
      </trkpt>
      <trkpt lat="48.80817" lon="1.99844">
        <ele>167.41</ele>
        <time>2014-11-23T11:00:36Z</time>
      </trkpt>
      <trkpt lat="48.80829" lon="1.9985">
        <ele>167.41</ele>
        <time>2014-11-23T11:00:50Z</time>
      </trkpt>
      <trkpt lat="48.80835" lon="1.99848">
        <ele>167.41</ele>
        <time>2014-11-23T11:01:04Z</time>
      </trkpt>
      <trkpt lat="48.80844" lon="1.99853">
        <ele>166.93</ele>
        <time>2014-11-23T11:01:20Z</time>
      </trkpt>
      <trkpt lat="48.8086" lon="1.99859">
        <ele>166.93</ele>
        <time>2014-11-23T11:01:36Z</time>
      </trkpt>
      <trkpt lat="48.80879" lon="1.99868">
        <ele>166.45</ele>
        <time>2014-11-23T11:01:54Z</time>
      </trkpt>
      <trkpt lat="48.80898" lon="1.99875">
        <ele>166.93</ele>
        <time>2014-11-23T11:02:13Z</time>
      </trkpt>
      <trkpt lat="48.80921" lon="1.99878">
        <ele>166.93</ele>
        <time>2014-11-23T11:02:33Z</time>
      </trkpt>
      <trkpt lat="48.80942" lon="1.99884">
        <ele>166.93</ele>
        <time>2014-11-23T11:02:51Z</time>
      </trkpt>
      <trkpt lat="48.80962" lon="1.99887">
        <ele>166.93</ele>
        <time>2014-11-23T11:03:08Z</time>
      </trkpt>
      <trkpt lat="48.80976" lon="1.99902">
        <ele>167.41</ele>
        <time>2014-11-23T11:03:25Z</time>
      </trkpt>
      <trkpt lat="48.80978" lon="1.99936">
        <ele>166.93</ele>
        <time>2014-11-23T11:03:45Z</time>
      </trkpt>
      <trkpt lat="48.80982" lon="1.9996">
        <ele>167.41</ele>
        <time>2014-11-23T11:04:02Z</time>
      </trkpt>
      <trkpt lat="48.8099" lon="1.99989">
        <ele>167.41</ele>
        <time>2014-11-23T11:04:20Z</time>
      </trkpt>
      <trkpt lat="48.80992" lon="2.00015">
        <ele>166.93</ele>
        <time>2014-11-23T11:04:40Z</time>
      </trkpt>
      <trkpt lat="48.80999" lon="2.00042">
        <ele>167.41</ele>
        <time>2014-11-23T11:04:57Z</time>
      </trkpt>
      <trkpt lat="48.81009" lon="2.00068">
        <ele>167.41</ele>
        <time>2014-11-23T11:05:16Z</time>
      </trkpt>
      <trkpt lat="48.8102" lon="2.00091">
        <ele>167.41</ele>
        <time>2014-11-23T11:05:33Z</time>
      </trkpt>
      <trkpt lat="48.81029" lon="2.00115">
        <ele>167.89</ele>
        <time>2014-11-23T11:05:51Z</time>
      </trkpt>
      <trkpt lat="48.8104" lon="2.00135">
        <ele>168.37</ele>
        <time>2014-11-23T11:06:07Z</time>
      </trkpt>
      <trkpt lat="48.81046" lon="2.00156">
        <ele>167.89</ele>
        <time>2014-11-23T11:06:23Z</time>
      </trkpt>
      <trkpt lat="48.81056" lon="2.00176">
        <ele>167.89</ele>
        <time>2014-11-23T11:06:38Z</time>
      </trkpt>
      <trkpt lat="48.81063" lon="2.00194">
        <ele>168.37</ele>
        <time>2014-11-23T11:06:52Z</time>
      </trkpt>
      <trkpt lat="48.81071" lon="2.00209">
        <ele>168.37</ele>
        <time>2014-11-23T11:07:05Z</time>
      </trkpt>
      <trkpt lat="48.81077" lon="2.00224">
        <ele>168.37</ele>
        <time>2014-11-23T11:07:22Z</time>
      </trkpt>
      <trkpt lat="48.8108" lon="2.00233">
        <ele>168.85</ele>
        <time>2014-11-23T11:07:29Z</time>
      </trkpt>
      <trkpt lat="48.81085" lon="2.00246">
        <ele>168.85</ele>
        <time>2014-11-23T11:07:42Z</time>
      </trkpt>
      <trkpt lat="48.81089" lon="2.00256">
        <ele>168.37</ele>
        <time>2014-11-23T11:07:56Z</time>
      </trkpt>
      <trkpt lat="48.81099" lon="2.00275">
        <ele>168.85</ele>
        <time>2014-11-23T11:08:11Z</time>
      </trkpt>
      <trkpt lat="48.81108" lon="2.00295">
        <ele>168.85</ele>
        <time>2014-11-23T11:08:25Z</time>
      </trkpt>
      <trkpt lat="48.81113" lon="2.00306">
        <ele>168.85</ele>
        <time>2014-11-23T11:08:36Z</time>
      </trkpt>
      <trkpt lat="48.81122" lon="2.00327">
        <ele>169.33</ele>
        <time>2014-11-23T11:08:51Z</time>
      </trkpt>
      <trkpt lat="48.81121" lon="2.00336">
        <ele>169.33</ele>
        <time>2014-11-23T11:09:09Z</time>
      </trkpt>
      <trkpt lat="48.81121" lon="2.00336">
        <ele>169.33</ele>
        <time>2014-11-23T11:09:33Z</time>
      </trkpt>
      <trkpt lat="48.81126" lon="2.00335">
        <ele>168.85</ele>
        <time>2014-11-23T11:09:49Z</time>
      </trkpt>
      <trkpt lat="48.81132" lon="2.00336">
        <ele>168.85</ele>
        <time>2014-11-23T11:10:18Z</time>
      </trkpt>
      <trkpt lat="48.8113" lon="2.00338">
        <ele>168.85</ele>
        <time>2014-11-23T11:10:38Z</time>
      </trkpt>
      <trkpt lat="48.81131" lon="2.00338">
        <ele>168.85</ele>
        <time>2014-11-23T11:11:00Z</time>
      </trkpt>
      <trkpt lat="48.81132" lon="2.00338">
        <ele>168.85</ele>
        <time>2014-11-23T11:11:21Z</time>
      </trkpt>
      <trkpt lat="48.81125" lon="2.0034">
        <ele>168.85</ele>
        <time>2014-11-23T11:11:44Z</time>
      </trkpt>
      <trkpt lat="48.81121" lon="2.00345">
        <ele>168.85</ele>
        <time>2014-11-23T11:11:50Z</time>
      </trkpt>
      <trkpt lat="48.8112" lon="2.00368">
        <ele>169.33</ele>
        <time>2014-11-23T11:12:04Z</time>
      </trkpt>
      <trkpt lat="48.81118" lon="2.00391">
        <ele>169.33</ele>
        <time>2014-11-23T11:12:19Z</time>
      </trkpt>
      <trkpt lat="48.81117" lon="2.00407">
        <ele>169.81</ele>
        <time>2014-11-23T11:12:33Z</time>
      </trkpt>
      <trkpt lat="48.81115" lon="2.0043">
        <ele>169.81</ele>
        <time>2014-11-23T11:12:49Z</time>
      </trkpt>
      <trkpt lat="48.81111" lon="2.00463">
        <ele>170.29</ele>
        <time>2014-11-23T11:13:08Z</time>
      </trkpt>
      <trkpt lat="48.81105" lon="2.0049">
        <ele>170.29</ele>
        <time>2014-11-23T11:13:24Z</time>
      </trkpt>
      <trkpt lat="48.81102" lon="2.00522">
        <ele>170.29</ele>
        <time>2014-11-23T11:13:44Z</time>
      </trkpt>
      <trkpt lat="48.81097" lon="2.00548">
        <ele>170.77</ele>
        <time>2014-11-23T11:13:59Z</time>
      </trkpt>
      <trkpt lat="48.81097" lon="2.00572">
        <ele>171.25</ele>
        <time>2014-11-23T11:14:15Z</time>
      </trkpt>
      <trkpt lat="48.81096" lon="2.00598">
        <ele>171.25</ele>
        <time>2014-11-23T11:14:30Z</time>
      </trkpt>
      <trkpt lat="48.81095" lon="2.00629">
        <ele>171.25</ele>
        <time>2014-11-23T11:14:48Z</time>
      </trkpt>
      <trkpt lat="48.81094" lon="2.0066">
        <ele>171.25</ele>
        <time>2014-11-23T11:15:05Z</time>
      </trkpt>
      <trkpt lat="48.81094" lon="2.00688">
        <ele>171.25</ele>
        <time>2014-11-23T11:15:20Z</time>
      </trkpt>
      <trkpt lat="48.81093" lon="2.00716">
        <ele>171.73</ele>
        <time>2014-11-23T11:15:38Z</time>
      </trkpt>
      <trkpt lat="48.8109" lon="2.0074">
        <ele>171.73</ele>
        <time>2014-11-23T11:15:54Z</time>
      </trkpt>
      <trkpt lat="48.81088" lon="2.0077">
        <ele>171.73</ele>
        <time>2014-11-23T11:16:12Z</time>
      </trkpt>
      <trkpt lat="48.81085" lon="2.00808">
        <ele>171.73</ele>
        <time>2014-11-23T11:16:33Z</time>
      </trkpt>
      <trkpt lat="48.81082" lon="2.00839">
        <ele>172.21</ele>
        <time>2014-11-23T11:16:52Z</time>
      </trkpt>
      <trkpt lat="48.81078" lon="2.00865">
        <ele>172.69</ele>
        <time>2014-11-23T11:17:09Z</time>
      </trkpt>
      <trkpt lat="48.81076" lon="2.00897">
        <ele>172.69</ele>
        <time>2014-11-23T11:17:29Z</time>
      </trkpt>
      <trkpt lat="48.81071" lon="2.00932">
        <ele>172.69</ele>
        <time>2014-11-23T11:17:48Z</time>
      </trkpt>
      <trkpt lat="48.81065" lon="2.00953">
        <ele>173.17</ele>
        <time>2014-11-23T11:18:05Z</time>
      </trkpt>
      <trkpt lat="48.81058" lon="2.0098">
        <ele>173.17</ele>
        <time>2014-11-23T11:18:23Z</time>
      </trkpt>
      <trkpt lat="48.8105" lon="2.01012">
        <ele>172.69</ele>
        <time>2014-11-23T11:18:41Z</time>
      </trkpt>
      <trkpt lat="48.81042" lon="2.01036">
        <ele>173.17</ele>
        <time>2014-11-23T11:19:00Z</time>
      </trkpt>
      <trkpt lat="48.81033" lon="2.01065">
        <ele>173.17</ele>
        <time>2014-11-23T11:19:17Z</time>
      </trkpt>
      <trkpt lat="48.81027" lon="2.01094">
        <ele>173.17</ele>
        <time>2014-11-23T11:19:36Z</time>
      </trkpt>
      <trkpt lat="48.8102" lon="2.01121">
        <ele>173.17</ele>
        <time>2014-11-23T11:19:53Z</time>
      </trkpt>
      <trkpt lat="48.81012" lon="2.0114">
        <ele>173.66</ele>
        <time>2014-11-23T11:20:07Z</time>
      </trkpt>
      <trkpt lat="48.81007" lon="2.0117">
        <ele>173.66</ele>
        <time>2014-11-23T11:20:25Z</time>
      </trkpt>
      <trkpt lat="48.81002" lon="2.0118">
        <ele>173.66</ele>
        <time>2014-11-23T11:20:42Z</time>
      </trkpt>
      <trkpt lat="48.81005" lon="2.01206">
        <ele>173.66</ele>
        <time>2014-11-23T11:21:00Z</time>
      </trkpt>
      <trkpt lat="48.81003" lon="2.01215">
        <ele>174.14</ele>
        <time>2014-11-23T11:21:17Z</time>
      </trkpt>
      <trkpt lat="48.81002" lon="2.01224">
        <ele>173.66</ele>
        <time>2014-11-23T11:21:47Z</time>
      </trkpt>
      <trkpt lat="48.81004" lon="2.01237">
        <ele>173.17</ele>
        <time>2014-11-23T11:22:20Z</time>
      </trkpt>
      <trkpt lat="48.81005" lon="2.01244">
        <ele>173.66</ele>
        <time>2014-11-23T11:22:41Z</time>
      </trkpt>
      <trkpt lat="48.81003" lon="2.01252">
        <ele>173.66</ele>
        <time>2014-11-23T11:22:57Z</time>
      </trkpt>
      <trkpt lat="48.81009" lon="2.01275">
        <ele>173.66</ele>
        <time>2014-11-23T11:23:14Z</time>
      </trkpt>
      <trkpt lat="48.81011" lon="2.01287">
        <ele>175.58</ele>
        <time>2014-11-23T11:55:54Z</time>
      </trkpt>
      <trkpt lat="48.81011" lon="2.01298">
        <ele>175.58</ele>
        <time>2014-11-23T11:56:35Z</time>
      </trkpt>
      <trkpt lat="48.81008" lon="2.01307">
        <ele>176.06</ele>
        <time>2014-11-23T12:01:00Z</time>
      </trkpt>
      <trkpt lat="48.81011" lon="2.01311">
        <ele>175.58</ele>
        <time>2014-11-23T12:01:17Z</time>
      </trkpt>
      <trkpt lat="48.81009" lon="2.0132">
        <ele>176.06</ele>
        <time>2014-11-23T12:01:33Z</time>
      </trkpt>
      <trkpt lat="48.81018" lon="2.01318">
        <ele>176.06</ele>
        <time>2014-11-23T12:02:15Z</time>
      </trkpt>
      <trkpt lat="48.81044" lon="2.01305">
        <ele>176.06</ele>
        <time>2014-11-23T12:02:38Z</time>
      </trkpt>
      <trkpt lat="48.81056" lon="2.013">
        <ele>176.06</ele>
        <time>2014-11-23T12:02:54Z</time>
      </trkpt>
      <trkpt lat="48.81063" lon="2.01298">
        <ele>176.06</ele>
        <time>2014-11-23T12:03:10Z</time>
      </trkpt>
      <trkpt lat="48.8108" lon="2.01292">
        <ele>176.06</ele>
        <time>2014-11-23T12:03:30Z</time>
      </trkpt>
      <trkpt lat="48.81093" lon="2.01287">
        <ele>176.06</ele>
        <time>2014-11-23T12:03:48Z</time>
      </trkpt>
      <trkpt lat="48.81108" lon="2.01274">
        <ele>176.54</ele>
        <time>2014-11-23T12:04:05Z</time>
      </trkpt>
      <trkpt lat="48.81129" lon="2.0127">
        <ele>176.54</ele>
        <time>2014-11-23T12:04:22Z</time>
      </trkpt>
      <trkpt lat="48.81144" lon="2.01263">
        <ele>176.54</ele>
        <time>2014-11-23T12:04:42Z</time>
      </trkpt>
      <trkpt lat="48.8116" lon="2.01258">
        <ele>176.54</ele>
        <time>2014-11-23T12:04:58Z</time>
      </trkpt>
      <trkpt lat="48.81176" lon="2.01249">
        <ele>176.54</ele>
        <time>2014-11-23T12:05:16Z</time>
      </trkpt>
      <trkpt lat="48.81191" lon="2.0124">
        <ele>177.02</ele>
        <time>2014-11-23T12:05:35Z</time>
      </trkpt>
      <trkpt lat="48.8121" lon="2.01234">
        <ele>177.02</ele>
        <time>2014-11-23T12:05:54Z</time>
      </trkpt>
      <trkpt lat="48.81228" lon="2.01228">
        <ele>177.02</ele>
        <time>2014-11-23T12:06:12Z</time>
      </trkpt>
      <trkpt lat="48.8125" lon="2.01225">
        <ele>176.06</ele>
        <time>2014-11-23T12:06:33Z</time>
      </trkpt>
      <trkpt lat="48.81269" lon="2.01222">
        <ele>175.1</ele>
        <time>2014-11-23T12:06:53Z</time>
      </trkpt>
      <trkpt lat="48.81286" lon="2.01219">
        <ele>173.17</ele>
        <time>2014-11-23T12:07:14Z</time>
      </trkpt>
      <trkpt lat="48.8131" lon="2.01206">
        <ele>170.77</ele>
        <time>2014-11-23T12:07:36Z</time>
      </trkpt>
      <trkpt lat="48.8133" lon="2.01199">
        <ele>168.85</ele>
        <time>2014-11-23T12:07:57Z</time>
      </trkpt>
      <trkpt lat="48.81349" lon="2.012">
        <ele>166.93</ele>
        <time>2014-11-23T12:08:15Z</time>
      </trkpt>
      <trkpt lat="48.81363" lon="2.01205">
        <ele>164.52</ele>
        <time>2014-11-23T12:08:32Z</time>
      </trkpt>
      <trkpt lat="48.81377" lon="2.01208">
        <ele>162.6</ele>
        <time>2014-11-23T12:08:48Z</time>
      </trkpt>
      <trkpt lat="48.81394" lon="2.01217">
        <ele>160.2</ele>
        <time>2014-11-23T12:09:08Z</time>
      </trkpt>
      <trkpt lat="48.81413" lon="2.01227">
        <ele>156.83</ele>
        <time>2014-11-23T12:09:31Z</time>
      </trkpt>
      <trkpt lat="48.81429" lon="2.01246">
        <ele>154.43</ele>
        <time>2014-11-23T12:09:52Z</time>
      </trkpt>
      <trkpt lat="48.81444" lon="2.01259">
        <ele>152.03</ele>
        <time>2014-11-23T12:10:11Z</time>
      </trkpt>
      <trkpt lat="48.81452" lon="2.01266">
        <ele>150.1</ele>
        <time>2014-11-23T12:10:28Z</time>
      </trkpt>
      <trkpt lat="48.81464" lon="2.01268">
        <ele>146.74</ele>
        <time>2014-11-23T12:10:45Z</time>
      </trkpt>
      <trkpt lat="48.81479" lon="2.01263">
        <ele>143.85</ele>
        <time>2014-11-23T12:11:05Z</time>
      </trkpt>
      <trkpt lat="48.81494" lon="2.01254">
        <ele>141.93</ele>
        <time>2014-11-23T12:11:23Z</time>
      </trkpt>
      <trkpt lat="48.81514" lon="2.01252">
        <ele>140.49</ele>
        <time>2014-11-23T12:11:43Z</time>
      </trkpt>
      <trkpt lat="48.81527" lon="2.01267">
        <ele>139.53</ele>
        <time>2014-11-23T12:12:00Z</time>
      </trkpt>
      <trkpt lat="48.81518" lon="2.01295">
        <ele>139.53</ele>
        <time>2014-11-23T12:12:19Z</time>
      </trkpt>
      <trkpt lat="48.81505" lon="2.01316">
        <ele>140.01</ele>
        <time>2014-11-23T12:12:38Z</time>
      </trkpt>
      <trkpt lat="48.81498" lon="2.01338">
        <ele>140.01</ele>
        <time>2014-11-23T12:12:57Z</time>
      </trkpt>
      <trkpt lat="48.81487" lon="2.01365">
        <ele>141.45</ele>
        <time>2014-11-23T12:13:14Z</time>
      </trkpt>
      <trkpt lat="48.81477" lon="2.01377">
        <ele>141.45</ele>
        <time>2014-11-23T12:13:29Z</time>
      </trkpt>
      <trkpt lat="48.81464" lon="2.01388">
        <ele>140.97</ele>
        <time>2014-11-23T12:13:46Z</time>
      </trkpt>
      <trkpt lat="48.81452" lon="2.014">
        <ele>140.97</ele>
        <time>2014-11-23T12:14:03Z</time>
      </trkpt>
      <trkpt lat="48.81439" lon="2.01412">
        <ele>142.41</ele>
        <time>2014-11-23T12:14:19Z</time>
      </trkpt>
      <trkpt lat="48.81433" lon="2.01418">
        <ele>143.37</ele>
        <time>2014-11-23T12:14:34Z</time>
      </trkpt>
      <trkpt lat="48.81422" lon="2.01427">
        <ele>146.26</ele>
        <time>2014-11-23T12:14:54Z</time>
      </trkpt>
      <trkpt lat="48.8141" lon="2.01438">
        <ele>147.22</ele>
        <time>2014-11-23T12:15:14Z</time>
      </trkpt>
      <trkpt lat="48.81392" lon="2.01455">
        <ele>148.18</ele>
        <time>2014-11-23T12:15:34Z</time>
      </trkpt>
      <trkpt lat="48.81371" lon="2.01476">
        <ele>150.58</ele>
        <time>2014-11-23T12:15:55Z</time>
      </trkpt>
      <trkpt lat="48.81362" lon="2.01486">
        <ele>153.95</ele>
        <time>2014-11-23T12:16:14Z</time>
      </trkpt>
      <trkpt lat="48.81351" lon="2.01498">
        <ele>156.83</ele>
        <time>2014-11-23T12:16:31Z</time>
      </trkpt>
      <trkpt lat="48.81345" lon="2.01504">
        <ele>159.24</ele>
        <time>2014-11-23T12:16:45Z</time>
      </trkpt>
      <trkpt lat="48.81331" lon="2.01513">
        <ele>161.64</ele>
        <time>2014-11-23T12:17:05Z</time>
      </trkpt>
      <trkpt lat="48.81323" lon="2.01521">
        <ele>162.12</ele>
        <time>2014-11-23T12:17:20Z</time>
      </trkpt>
      <trkpt lat="48.81309" lon="2.01529">
        <ele>160.68</ele>
        <time>2014-11-23T12:17:38Z</time>
      </trkpt>
      <trkpt lat="48.81305" lon="2.01535">
        <ele>159.24</ele>
        <time>2014-11-23T12:17:46Z</time>
      </trkpt>
      <trkpt lat="48.81287" lon="2.01555">
        <ele>158.75</ele>
        <time>2014-11-23T12:18:03Z</time>
      </trkpt>
      <trkpt lat="48.81285" lon="2.01556">
        <ele>158.75</ele>
        <time>2014-11-23T12:18:05Z</time>
      </trkpt>
      <trkpt lat="48.81272" lon="2.01573">
        <ele>161.16</ele>
        <time>2014-11-23T12:18:22Z</time>
      </trkpt>
      <trkpt lat="48.81261" lon="2.01583">
        <ele>164.52</ele>
        <time>2014-11-23T12:18:36Z</time>
      </trkpt>
      <trkpt lat="48.81249" lon="2.01595">
        <ele>167.41</ele>
        <time>2014-11-23T12:18:52Z</time>
      </trkpt>
      <trkpt lat="48.81238" lon="2.01601">
        <ele>169.33</ele>
        <time>2014-11-23T12:19:10Z</time>
      </trkpt>
      <trkpt lat="48.81234" lon="2.01605">
        <ele>169.33</ele>
        <time>2014-11-23T12:19:36Z</time>
      </trkpt>
      <trkpt lat="48.81233" lon="2.01608">
        <ele>169.81</ele>
        <time>2014-11-23T12:19:55Z</time>
      </trkpt>
      <trkpt lat="48.81234" lon="2.01611">
        <ele>169.81</ele>
        <time>2014-11-23T12:20:20Z</time>
      </trkpt>
      <trkpt lat="48.81232" lon="2.01608">
        <ele>170.29</ele>
        <time>2014-11-23T12:20:44Z</time>
      </trkpt>
      <trkpt lat="48.81234" lon="2.01608">
        <ele>170.29</ele>
        <time>2014-11-23T12:21:11Z</time>
      </trkpt>
      <trkpt lat="48.81231" lon="2.01612">
        <ele>170.77</ele>
        <time>2014-11-23T12:21:42Z</time>
      </trkpt>
      <trkpt lat="48.81232" lon="2.01609">
        <ele>170.77</ele>
        <time>2014-11-23T12:22:11Z</time>
      </trkpt>
      <trkpt lat="48.81236" lon="2.01603">
        <ele>170.77</ele>
        <time>2014-11-23T12:22:33Z</time>
      </trkpt>
      <trkpt lat="48.81235" lon="2.01606">
        <ele>171.25</ele>
        <time>2014-11-23T12:23:04Z</time>
      </trkpt>
      <trkpt lat="48.81232" lon="2.01606">
        <ele>171.25</ele>
        <time>2014-11-23T12:23:28Z</time>
      </trkpt>
      <trkpt lat="48.81234" lon="2.01615">
        <ele>171.25</ele>
        <time>2014-11-23T12:23:57Z</time>
      </trkpt>
      <trkpt lat="48.81233" lon="2.01613">
        <ele>171.25</ele>
        <time>2014-11-23T12:24:28Z</time>
      </trkpt>
      <trkpt lat="48.81229" lon="2.01615">
        <ele>171.73</ele>
        <time>2014-11-23T12:24:47Z</time>
      </trkpt>
      <trkpt lat="48.8122" lon="2.01621">
        <ele>172.21</ele>
        <time>2014-11-23T12:25:04Z</time>
      </trkpt>
      <trkpt lat="48.81201" lon="2.01632">
        <ele>172.21</ele>
        <time>2014-11-23T12:25:24Z</time>
      </trkpt>
      <trkpt lat="48.81181" lon="2.01648">
        <ele>173.17</ele>
        <time>2014-11-23T12:25:41Z</time>
      </trkpt>
      <trkpt lat="48.81166" lon="2.01662">
        <ele>174.62</ele>
        <time>2014-11-23T12:26:00Z</time>
      </trkpt>
      <trkpt lat="48.81153" lon="2.01675">
        <ele>175.1</ele>
        <time>2014-11-23T12:26:16Z</time>
      </trkpt>
      <trkpt lat="48.81141" lon="2.01687">
        <ele>175.1</ele>
        <time>2014-11-23T12:26:34Z</time>
      </trkpt>
      <trkpt lat="48.81124" lon="2.01701">
        <ele>175.1</ele>
        <time>2014-11-23T12:26:53Z</time>
      </trkpt>
      <trkpt lat="48.81105" lon="2.01715">
        <ele>175.58</ele>
        <time>2014-11-23T12:27:10Z</time>
      </trkpt>
      <trkpt lat="48.81092" lon="2.01724">
        <ele>175.58</ele>
        <time>2014-11-23T12:27:24Z</time>
      </trkpt>
      <trkpt lat="48.8108" lon="2.01732">
        <ele>176.54</ele>
        <time>2014-11-23T12:27:38Z</time>
      </trkpt>
      <trkpt lat="48.81078" lon="2.01763">
        <ele>176.54</ele>
        <time>2014-11-23T12:27:54Z</time>
      </trkpt>
      <trkpt lat="48.8107" lon="2.0179">
        <ele>176.54</ele>
        <time>2014-11-23T12:28:11Z</time>
      </trkpt>
      <trkpt lat="48.81069" lon="2.01817">
        <ele>176.54</ele>
        <time>2014-11-23T12:28:29Z</time>
      </trkpt>
      <trkpt lat="48.81064" lon="2.01841">
        <ele>176.54</ele>
        <time>2014-11-23T12:28:45Z</time>
      </trkpt>
      <trkpt lat="48.81059" lon="2.01864">
        <ele>177.02</ele>
        <time>2014-11-23T12:29:01Z</time>
      </trkpt>
      <trkpt lat="48.81058" lon="2.01878">
        <ele>177.02</ele>
        <time>2014-11-23T12:29:16Z</time>
      </trkpt>
      <trkpt lat="48.81048" lon="2.01898">
        <ele>177.5</ele>
        <time>2014-11-23T12:29:33Z</time>
      </trkpt>
      <trkpt lat="48.8105" lon="2.01919">
        <ele>177.5</ele>
        <time>2014-11-23T12:29:47Z</time>
      </trkpt>
      <trkpt lat="48.81044" lon="2.01947">
        <ele>177.5</ele>
        <time>2014-11-23T12:30:05Z</time>
      </trkpt>
      <trkpt lat="48.81041" lon="2.01973">
        <ele>176.54</ele>
        <time>2014-11-23T12:30:21Z</time>
      </trkpt>
      <trkpt lat="48.81038" lon="2.01994">
        <ele>175.58</ele>
        <time>2014-11-23T12:30:37Z</time>
      </trkpt>
      <trkpt lat="48.81031" lon="2.02017">
        <ele>172.69</ele>
        <time>2014-11-23T12:30:57Z</time>
      </trkpt>
      <trkpt lat="48.81025" lon="2.0205">
        <ele>172.21</ele>
        <time>2014-11-23T12:31:17Z</time>
      </trkpt>
      <trkpt lat="48.81019" lon="2.02074">
        <ele>175.1</ele>
        <time>2014-11-23T12:31:38Z</time>
      </trkpt>
      <trkpt lat="48.81019" lon="2.02095">
        <ele>176.54</ele>
        <time>2014-11-23T12:31:56Z</time>
      </trkpt>
      <trkpt lat="48.8102" lon="2.02096">
        <ele>175.58</ele>
        <time>2014-11-23T12:32:09Z</time>
      </trkpt>
      <trkpt lat="48.81018" lon="2.02098">
        <ele>176.54</ele>
        <time>2014-11-23T12:32:27Z</time>
      </trkpt>
      <trkpt lat="48.81025" lon="2.02102">
        <ele>176.06</ele>
        <time>2014-11-23T12:32:44Z</time>
      </trkpt>
      <trkpt lat="48.81026" lon="2.02102">
        <ele>176.06</ele>
        <time>2014-11-23T12:33:09Z</time>
      </trkpt>
      <trkpt lat="48.81033" lon="2.02112">
        <ele>175.58</ele>
        <time>2014-11-23T12:33:28Z</time>
      </trkpt>
      <trkpt lat="48.81052" lon="2.02119">
        <ele>174.14</ele>
        <time>2014-11-23T12:33:49Z</time>
      </trkpt>
      <trkpt lat="48.81067" lon="2.02137">
        <ele>172.69</ele>
        <time>2014-11-23T12:34:10Z</time>
      </trkpt>
      <trkpt lat="48.81079" lon="2.0215">
        <ele>170.77</ele>
        <time>2014-11-23T12:34:30Z</time>
      </trkpt>
      <trkpt lat="48.81085" lon="2.02158">
        <ele>168.85</ele>
        <time>2014-11-23T12:34:48Z</time>
      </trkpt>
      <trkpt lat="48.81096" lon="2.02181">
        <ele>167.41</ele>
        <time>2014-11-23T12:35:09Z</time>
      </trkpt>
      <trkpt lat="48.81105" lon="2.02202">
        <ele>166.93</ele>
        <time>2014-11-23T12:35:27Z</time>
      </trkpt>
      <trkpt lat="48.81116" lon="2.02226">
        <ele>165.48</ele>
        <time>2014-11-23T12:35:46Z</time>
      </trkpt>
      <trkpt lat="48.81125" lon="2.02247">
        <ele>164.52</ele>
        <time>2014-11-23T12:36:05Z</time>
      </trkpt>
      <trkpt lat="48.81135" lon="2.02262">
        <ele>161.64</ele>
        <time>2014-11-23T12:36:22Z</time>
      </trkpt>
      <trkpt lat="48.81139" lon="2.02284">
        <ele>159.72</ele>
        <time>2014-11-23T12:36:40Z</time>
      </trkpt>
      <trkpt lat="48.81141" lon="2.023">
        <ele>156.83</ele>
        <time>2014-11-23T12:36:54Z</time>
      </trkpt>
      <trkpt lat="48.81133" lon="2.02318">
        <ele>154.91</ele>
        <time>2014-11-23T12:37:10Z</time>
      </trkpt>
      <trkpt lat="48.81127" lon="2.02331">
        <ele>152.99</ele>
        <time>2014-11-23T12:37:29Z</time>
      </trkpt>
      <trkpt lat="48.81125" lon="2.02347">
        <ele>150.1</ele>
        <time>2014-11-23T12:37:50Z</time>
      </trkpt>
      <trkpt lat="48.81122" lon="2.02362">
        <ele>147.7</ele>
        <time>2014-11-23T12:38:08Z</time>
      </trkpt>
      <trkpt lat="48.81125" lon="2.0238">
        <ele>145.3</ele>
        <time>2014-11-23T12:38:25Z</time>
      </trkpt>
      <trkpt lat="48.81118" lon="2.02392">
        <ele>145.78</ele>
        <time>2014-11-23T12:38:39Z</time>
      </trkpt>
      <trkpt lat="48.81112" lon="2.02401">
        <ele>146.26</ele>
        <time>2014-11-23T12:38:55Z</time>
      </trkpt>
      <trkpt lat="48.8111" lon="2.02403">
        <ele>146.26</ele>
        <time>2014-11-23T12:39:12Z</time>
      </trkpt>
      <trkpt lat="48.81107" lon="2.02409">
        <ele>146.26</ele>
        <time>2014-11-23T12:39:30Z</time>
      </trkpt>
      <trkpt lat="48.8111" lon="2.02436">
        <ele>146.26</ele>
        <time>2014-11-23T12:39:44Z</time>
      </trkpt>
      <trkpt lat="48.81112" lon="2.02451">
        <ele>147.22</ele>
        <time>2014-11-23T12:39:58Z</time>
      </trkpt>
      <trkpt lat="48.81115" lon="2.02472">
        <ele>148.18</ele>
        <time>2014-11-23T12:40:12Z</time>
      </trkpt>
      <trkpt lat="48.81114" lon="2.02489">
        <ele>149.62</ele>
        <time>2014-11-23T12:40:26Z</time>
      </trkpt>
      <trkpt lat="48.81112" lon="2.02509">
        <ele>151.06</ele>
        <time>2014-11-23T12:40:42Z</time>
      </trkpt>
      <trkpt lat="48.81107" lon="2.02525">
        <ele>153.47</ele>
        <time>2014-11-23T12:40:56Z</time>
      </trkpt>
      <trkpt lat="48.81102" lon="2.0254">
        <ele>155.39</ele>
        <time>2014-11-23T12:41:10Z</time>
      </trkpt>
      <trkpt lat="48.81095" lon="2.02554">
        <ele>156.83</ele>
        <time>2014-11-23T12:41:24Z</time>
      </trkpt>
      <trkpt lat="48.81093" lon="2.02554">
        <ele>156.35</ele>
        <time>2014-11-23T12:41:42Z</time>
      </trkpt>
      <trkpt lat="48.81094" lon="2.02564">
        <ele>155.87</ele>
        <time>2014-11-23T12:42:10Z</time>
      </trkpt>
      <trkpt lat="48.81091" lon="2.02566">
        <ele>155.87</ele>
        <time>2014-11-23T12:42:31Z</time>
      </trkpt>
      <trkpt lat="48.81091" lon="2.02564">
        <ele>155.87</ele>
        <time>2014-11-23T12:42:57Z</time>
      </trkpt>
      <trkpt lat="48.81092" lon="2.02567">
        <ele>155.39</ele>
        <time>2014-11-23T12:43:27Z</time>
      </trkpt>
      <trkpt lat="48.81088" lon="2.02567">
        <ele>154.91</ele>
        <time>2014-11-23T12:43:55Z</time>
      </trkpt>
      <trkpt lat="48.81092" lon="2.02569">
        <ele>154.91</ele>
        <time>2014-11-23T12:44:15Z</time>
      </trkpt>
      <trkpt lat="48.81092" lon="2.02567">
        <ele>154.91</ele>
        <time>2014-11-23T12:44:33Z</time>
      </trkpt>
      <trkpt lat="48.81091" lon="2.02576">
        <ele>154.91</ele>
        <time>2014-11-23T12:44:49Z</time>
      </trkpt>
      <trkpt lat="48.81089" lon="2.0259">
        <ele>153.47</ele>
        <time>2014-11-23T12:45:07Z</time>
      </trkpt>
      <trkpt lat="48.81084" lon="2.02598">
        <ele>152.51</ele>
        <time>2014-11-23T12:45:21Z</time>
      </trkpt>
      <trkpt lat="48.81074" lon="2.02611">
        <ele>151.06</ele>
        <time>2014-11-23T12:45:38Z</time>
      </trkpt>
      <trkpt lat="48.81065" lon="2.02626">
        <ele>149.62</ele>
        <time>2014-11-23T12:45:55Z</time>
      </trkpt>
      <trkpt lat="48.81055" lon="2.02638">
        <ele>149.14</ele>
        <time>2014-11-23T12:46:10Z</time>
      </trkpt>
      <trkpt lat="48.81046" lon="2.02645">
        <ele>150.1</ele>
        <time>2014-11-23T12:46:26Z</time>
      </trkpt>
      <trkpt lat="48.81037" lon="2.02652">
        <ele>151.06</ele>
        <time>2014-11-23T12:46:44Z</time>
      </trkpt>
      <trkpt lat="48.81027" lon="2.02663">
        <ele>152.03</ele>
        <time>2014-11-23T12:46:57Z</time>
      </trkpt>
      <trkpt lat="48.81024" lon="2.02679">
        <ele>152.51</ele>
        <time>2014-11-23T12:47:11Z</time>
      </trkpt>
      <trkpt lat="48.81017" lon="2.02693">
        <ele>152.51</ele>
        <time>2014-11-23T12:47:23Z</time>
      </trkpt>
      <trkpt lat="48.81009" lon="2.02709">
        <ele>152.51</ele>
        <time>2014-11-23T12:47:35Z</time>
      </trkpt>
      <trkpt lat="48.81004" lon="2.02723">
        <ele>153.47</ele>
        <time>2014-11-23T12:47:48Z</time>
      </trkpt>
      <trkpt lat="48.80997" lon="2.0274">
        <ele>153.47</ele>
        <time>2014-11-23T12:48:02Z</time>
      </trkpt>
      <trkpt lat="48.80989" lon="2.02756">
        <ele>152.99</ele>
        <time>2014-11-23T12:48:17Z</time>
      </trkpt>
      <trkpt lat="48.80986" lon="2.02767">
        <ele>153.95</ele>
        <time>2014-11-23T12:48:31Z</time>
      </trkpt>
      <trkpt lat="48.8098" lon="2.02779">
        <ele>155.39</ele>
        <time>2014-11-23T12:48:45Z</time>
      </trkpt>
      <trkpt lat="48.80974" lon="2.02794">
        <ele>155.39</ele>
        <time>2014-11-23T12:49:00Z</time>
      </trkpt>
      <trkpt lat="48.80962" lon="2.02816">
        <ele>153.95</ele>
        <time>2014-11-23T12:49:18Z</time>
      </trkpt>
      <trkpt lat="48.80958" lon="2.0283">
        <ele>154.43</ele>
        <time>2014-11-23T12:49:35Z</time>
      </trkpt>
      <trkpt lat="48.80959" lon="2.02841">
        <ele>153.47</ele>
        <time>2014-11-23T12:49:48Z</time>
      </trkpt>
      <trkpt lat="48.80958" lon="2.02851">
        <ele>153.47</ele>
        <time>2014-11-23T12:50:11Z</time>
      </trkpt>
      <trkpt lat="48.80955" lon="2.02859">
        <ele>153.95</ele>
        <time>2014-11-23T12:50:26Z</time>
      </trkpt>
      <trkpt lat="48.80951" lon="2.02863">
        <ele>154.43</ele>
        <time>2014-11-23T12:50:39Z</time>
      </trkpt>
      <trkpt lat="48.80949" lon="2.02884">
        <ele>154.91</ele>
        <time>2014-11-23T12:50:55Z</time>
      </trkpt>
      <trkpt lat="48.80947" lon="2.02893">
        <ele>154.91</ele>
        <time>2014-11-23T12:51:06Z</time>
      </trkpt>
      <trkpt lat="48.80941" lon="2.0292">
        <ele>154.91</ele>
        <time>2014-11-23T12:51:21Z</time>
      </trkpt>
      <trkpt lat="48.80937" lon="2.02917">
        <ele>154.91</ele>
        <time>2014-11-23T12:51:41Z</time>
      </trkpt>
      <trkpt lat="48.80934" lon="2.02914">
        <ele>155.39</ele>
        <time>2014-11-23T12:52:05Z</time>
      </trkpt>
      <trkpt lat="48.80938" lon="2.02915">
        <ele>154.91</ele>
        <time>2014-11-23T12:52:34Z</time>
      </trkpt>
      <trkpt lat="48.80937" lon="2.02932">
        <ele>154.91</ele>
        <time>2014-11-23T12:52:58Z</time>
      </trkpt>
      <trkpt lat="48.80936" lon="2.02948">
        <ele>154.43</ele>
        <time>2014-11-23T12:53:13Z</time>
      </trkpt>
      <trkpt lat="48.80936" lon="2.0297">
        <ele>152.51</ele>
        <time>2014-11-23T12:53:30Z</time>
      </trkpt>
      <trkpt lat="48.80935" lon="2.02988">
        <ele>150.58</ele>
        <time>2014-11-23T12:53:46Z</time>
      </trkpt>
      <trkpt lat="48.80929" lon="2.02995">
        <ele>151.06</ele>
        <time>2014-11-23T12:54:03Z</time>
      </trkpt>
      <trkpt lat="48.80924" lon="2.03017">
        <ele>151.06</ele>
        <time>2014-11-23T12:54:19Z</time>
      </trkpt>
      <trkpt lat="48.80919" lon="2.03043">
        <ele>152.51</ele>
        <time>2014-11-23T12:54:36Z</time>
      </trkpt>
      <trkpt lat="48.80914" lon="2.03061">
        <ele>152.99</ele>
        <time>2014-11-23T12:54:49Z</time>
      </trkpt>
      <trkpt lat="48.80911" lon="2.0307">
        <ele>152.99</ele>
        <time>2014-11-23T12:55:05Z</time>
      </trkpt>
      <trkpt lat="48.80904" lon="2.03089">
        <ele>152.99</ele>
        <time>2014-11-23T12:55:20Z</time>
      </trkpt>
      <trkpt lat="48.80902" lon="2.03097">
        <ele>152.51</ele>
        <time>2014-11-23T12:55:36Z</time>
      </trkpt>
      <trkpt lat="48.80897" lon="2.03112">
        <ele>152.51</ele>
        <time>2014-11-23T12:55:52Z</time>
      </trkpt>
      <trkpt lat="48.80889" lon="2.03133">
        <ele>152.51</ele>
        <time>2014-11-23T12:56:08Z</time>
      </trkpt>
      <trkpt lat="48.8088" lon="2.03159">
        <ele>153.95</ele>
        <time>2014-11-23T12:56:25Z</time>
      </trkpt>
      <trkpt lat="48.80873" lon="2.03183">
        <ele>154.43</ele>
        <time>2014-11-23T12:56:40Z</time>
      </trkpt>
      <trkpt lat="48.8087" lon="2.03193">
        <ele>153.47</ele>
        <time>2014-11-23T12:56:54Z</time>
      </trkpt>
      <trkpt lat="48.80866" lon="2.03208">
        <ele>152.51</ele>
        <time>2014-11-23T12:57:11Z</time>
      </trkpt>
      <trkpt lat="48.80859" lon="2.0323">
        <ele>153.95</ele>
        <time>2014-11-23T12:57:27Z</time>
      </trkpt>
      <trkpt lat="48.80852" lon="2.03253">
        <ele>154.43</ele>
        <time>2014-11-23T12:57:45Z</time>
      </trkpt>
      <trkpt lat="48.80843" lon="2.03272">
        <ele>154.91</ele>
        <time>2014-11-23T12:58:01Z</time>
      </trkpt>
      <trkpt lat="48.80838" lon="2.03292">
        <ele>153.95</ele>
        <time>2014-11-23T12:58:17Z</time>
      </trkpt>
      <trkpt lat="48.80828" lon="2.03304">
        <ele>155.87</ele>
        <time>2014-11-23T12:58:33Z</time>
      </trkpt>
      <trkpt lat="48.80827" lon="2.03318">
        <ele>156.83</ele>
        <time>2014-11-23T12:58:44Z</time>
      </trkpt>
      <trkpt lat="48.80825" lon="2.03332">
        <ele>159.24</ele>
        <time>2014-11-23T12:59:00Z</time>
      </trkpt>
      <trkpt lat="48.80822" lon="2.03344">
        <ele>160.68</ele>
        <time>2014-11-23T12:59:17Z</time>
      </trkpt>
      <trkpt lat="48.80824" lon="2.03336">
        <ele>160.68</ele>
        <time>2014-11-23T12:59:38Z</time>
      </trkpt>
      <trkpt lat="48.80822" lon="2.03342">
        <ele>160.68</ele>
        <time>2014-11-23T13:00:01Z</time>
      </trkpt>
      <trkpt lat="48.80823" lon="2.03341">
        <ele>160.2</ele>
        <time>2014-11-23T13:00:27Z</time>
      </trkpt>
      <trkpt lat="48.80823" lon="2.03341">
        <ele>160.2</ele>
        <time>2014-11-23T13:00:54Z</time>
      </trkpt>
      <trkpt lat="48.80819" lon="2.03344">
        <ele>160.2</ele>
        <time>2014-11-23T13:01:18Z</time>
      </trkpt>
      <trkpt lat="48.8082" lon="2.03343">
        <ele>160.2</ele>
        <time>2014-11-23T13:01:46Z</time>
      </trkpt>
      <trkpt lat="48.80822" lon="2.03338">
        <ele>160.2</ele>
        <time>2014-11-23T13:02:12Z</time>
      </trkpt>
      <trkpt lat="48.80822" lon="2.03341">
        <ele>160.2</ele>
        <time>2014-11-23T13:02:47Z</time>
      </trkpt>
      <trkpt lat="48.80822" lon="2.03341">
        <ele>160.2</ele>
        <time>2014-11-23T13:03:18Z</time>
      </trkpt>
      <trkpt lat="48.80819" lon="2.03339">
        <ele>160.2</ele>
        <time>2014-11-23T13:03:47Z</time>
      </trkpt>
      <trkpt lat="48.80822" lon="2.03343">
        <ele>160.68</ele>
        <time>2014-11-23T13:04:16Z</time>
      </trkpt>
      <trkpt lat="48.80823" lon="2.03347">
        <ele>160.68</ele>
        <time>2014-11-23T13:04:44Z</time>
      </trkpt>
      <trkpt lat="48.80822" lon="2.03345">
        <ele>161.16</ele>
        <time>2014-11-23T13:05:19Z</time>
      </trkpt>
      <trkpt lat="48.80824" lon="2.03344">
        <ele>161.16</ele>
        <time>2014-11-23T13:05:46Z</time>
      </trkpt>
      <trkpt lat="48.80824" lon="2.0335">
        <ele>161.16</ele>
        <time>2014-11-23T13:06:18Z</time>
      </trkpt>
      <trkpt lat="48.80819" lon="2.03373">
        <ele>159.24</ele>
        <time>2014-11-23T13:06:40Z</time>
      </trkpt>
      <trkpt lat="48.80816" lon="2.03397">
        <ele>157.79</ele>
        <time>2014-11-23T13:06:59Z</time>
      </trkpt>
      <trkpt lat="48.80814" lon="2.03404">
        <ele>157.31</ele>
        <time>2014-11-23T13:07:14Z</time>
      </trkpt>
      <trkpt lat="48.80813" lon="2.03417">
        <ele>156.83</ele>
        <time>2014-11-23T13:07:32Z</time>
      </trkpt>
      <trkpt lat="48.80808" lon="2.03434">
        <ele>155.87</ele>
        <time>2014-11-23T13:07:54Z</time>
      </trkpt>
      <trkpt lat="48.80805" lon="2.03458">
        <ele>153.95</ele>
        <time>2014-11-23T13:08:15Z</time>
      </trkpt>
      <trkpt lat="48.80804" lon="2.03469">
        <ele>152.03</ele>
        <time>2014-11-23T13:08:31Z</time>
      </trkpt>
      <trkpt lat="48.80803" lon="2.03487">
        <ele>150.1</ele>
        <time>2014-11-23T13:08:47Z</time>
      </trkpt>
      <trkpt lat="48.808" lon="2.03511">
        <ele>148.66</ele>
        <time>2014-11-23T13:09:05Z</time>
      </trkpt>
      <trkpt lat="48.80796" lon="2.03521">
        <ele>149.14</ele>
        <time>2014-11-23T13:09:19Z</time>
      </trkpt>
      <trkpt lat="48.80785" lon="2.03523">
        <ele>152.51</ele>
        <time>2014-11-23T13:09:34Z</time>
      </trkpt>
      <trkpt lat="48.80779" lon="2.03534">
        <ele>154.91</ele>
        <time>2014-11-23T13:09:50Z</time>
      </trkpt>
      <trkpt lat="48.80774" lon="2.03546">
        <ele>157.31</ele>
        <time>2014-11-23T13:10:10Z</time>
      </trkpt>
      <trkpt lat="48.80769" lon="2.03551">
        <ele>157.79</ele>
        <time>2014-11-23T13:10:29Z</time>
      </trkpt>
      <trkpt lat="48.80764" lon="2.03566">
        <ele>154.43</ele>
        <time>2014-11-23T13:10:46Z</time>
      </trkpt>
      <trkpt lat="48.80759" lon="2.03585">
        <ele>151.06</ele>
        <time>2014-11-23T13:11:00Z</time>
      </trkpt>
      <trkpt lat="48.80757" lon="2.03603">
        <ele>150.1</ele>
        <time>2014-11-23T13:11:21Z</time>
      </trkpt>
      <trkpt lat="48.80756" lon="2.03622">
        <ele>148.66</ele>
        <time>2014-11-23T13:11:35Z</time>
      </trkpt>
      <trkpt lat="48.80748" lon="2.03654">
        <ele>148.18</ele>
        <time>2014-11-23T13:11:55Z</time>
      </trkpt>
      <trkpt lat="48.80747" lon="2.03672">
        <ele>149.62</ele>
        <time>2014-11-23T13:12:14Z</time>
      </trkpt>
      <trkpt lat="48.80739" lon="2.03682">
        <ele>152.99</ele>
        <time>2014-11-23T13:12:28Z</time>
      </trkpt>
      <trkpt lat="48.80741" lon="2.03689">
        <ele>154.91</ele>
        <time>2014-11-23T13:12:48Z</time>
      </trkpt>
      <trkpt lat="48.80741" lon="2.03708">
        <ele>157.79</ele>
        <time>2014-11-23T13:13:07Z</time>
      </trkpt>
      <trkpt lat="48.80742" lon="2.0372">
        <ele>160.68</ele>
        <time>2014-11-23T13:13:24Z</time>
      </trkpt>
      <trkpt lat="48.80741" lon="2.03736">
        <ele>162.6</ele>
        <time>2014-11-23T13:13:41Z</time>
      </trkpt>
      <trkpt lat="48.80737" lon="2.03754">
        <ele>163.56</ele>
        <time>2014-11-23T13:13:54Z</time>
      </trkpt>
      <trkpt lat="48.80731" lon="2.0377">
        <ele>164.04</ele>
        <time>2014-11-23T13:14:08Z</time>
      </trkpt>
      <trkpt lat="48.80724" lon="2.03778">
        <ele>165.48</ele>
        <time>2014-11-23T13:14:26Z</time>
      </trkpt>
      <trkpt lat="48.80714" lon="2.03807">
        <ele>166.45</ele>
        <time>2014-11-23T13:14:48Z</time>
      </trkpt>
      <trkpt lat="48.80701" lon="2.03825">
        <ele>166.93</ele>
        <time>2014-11-23T13:15:06Z</time>
      </trkpt>
      <trkpt lat="48.80692" lon="2.03818">
        <ele>167.41</ele>
        <time>2014-11-23T13:15:20Z</time>
      </trkpt>
      <trkpt lat="48.80682" lon="2.03801">
        <ele>167.41</ele>
        <time>2014-11-23T13:15:33Z</time>
      </trkpt>
      <trkpt lat="48.80675" lon="2.03784">
        <ele>167.89</ele>
        <time>2014-11-23T13:15:51Z</time>
      </trkpt>
      <trkpt lat="48.80671" lon="2.03783">
        <ele>167.89</ele>
        <time>2014-11-23T13:16:09Z</time>
      </trkpt>
      <trkpt lat="48.80671" lon="2.03783">
        <ele>168.37</ele>
        <time>2014-11-23T13:16:27Z</time>
      </trkpt>
      <trkpt lat="48.80674" lon="2.03784">
        <ele>168.37</ele>
        <time>2014-11-23T13:16:59Z</time>
      </trkpt>
      <trkpt lat="48.80674" lon="2.03774">
        <ele>168.37</ele>
        <time>2014-11-23T13:17:30Z</time>
      </trkpt>
      <trkpt lat="48.80683" lon="2.03767">
        <ele>169.81</ele>
        <time>2014-11-23T13:17:52Z</time>
      </trkpt>
      <trkpt lat="48.80673" lon="2.03783">
        <ele>168.85</ele>
        <time>2014-11-23T13:18:09Z</time>
      </trkpt>
      <trkpt lat="48.80672" lon="2.03788">
        <ele>168.85</ele>
        <time>2014-11-23T13:18:30Z</time>
      </trkpt>
      <trkpt lat="48.80671" lon="2.03787">
        <ele>168.37</ele>
        <time>2014-11-23T13:18:55Z</time>
      </trkpt>
      <trkpt lat="48.8067" lon="2.03791">
        <ele>168.37</ele>
        <time>2014-11-23T13:19:24Z</time>
      </trkpt>
      <trkpt lat="48.80666" lon="2.03783">
        <ele>168.37</ele>
        <time>2014-11-23T13:19:46Z</time>
      </trkpt>
      <trkpt lat="48.80666" lon="2.03787">
        <ele>168.85</ele>
        <time>2014-11-23T13:20:03Z</time>
      </trkpt>
      <trkpt lat="48.80661" lon="2.03777">
        <ele>168.85</ele>
        <time>2014-11-23T13:20:18Z</time>
      </trkpt>
      <trkpt lat="48.8065" lon="2.0376">
        <ele>169.33</ele>
        <time>2014-11-23T13:20:34Z</time>
      </trkpt>
      <trkpt lat="48.80647" lon="2.03753">
        <ele>169.33</ele>
        <time>2014-11-23T13:20:43Z</time>
      </trkpt>
      <trkpt lat="48.80639" lon="2.03734">
        <ele>169.81</ele>
        <time>2014-11-23T13:20:57Z</time>
      </trkpt>
      <trkpt lat="48.80635" lon="2.03728">
        <ele>169.81</ele>
        <time>2014-11-23T13:21:01Z</time>
      </trkpt>
      <trkpt lat="48.80617" lon="2.03724">
        <ele>169.81</ele>
        <time>2014-11-23T13:21:17Z</time>
      </trkpt>
      <trkpt lat="48.80615" lon="2.03722">
        <ele>169.33</ele>
        <time>2014-11-23T13:21:29Z</time>
      </trkpt>
      <trkpt lat="48.80611" lon="2.03726">
        <ele>169.81</ele>
        <time>2014-11-23T13:21:39Z</time>
      </trkpt>
      <trkpt lat="48.8061" lon="2.0372">
        <ele>169.81</ele>
        <time>2014-11-23T13:21:55Z</time>
      </trkpt>
      <trkpt lat="48.80601" lon="2.03724">
        <ele>169.81</ele>
        <time>2014-11-23T13:22:12Z</time>
      </trkpt>
      <trkpt lat="48.80598" lon="2.03743">
        <ele>169.81</ele>
        <time>2014-11-23T13:22:27Z</time>
      </trkpt>
      <trkpt lat="48.80603" lon="2.03765">
        <ele>169.81</ele>
        <time>2014-11-23T13:22:40Z</time>
      </trkpt>
      <trkpt lat="48.80604" lon="2.03791">
        <ele>169.33</ele>
        <time>2014-11-23T13:23:00Z</time>
      </trkpt>
      <trkpt lat="48.80607" lon="2.03815">
        <ele>168.85</ele>
        <time>2014-11-23T13:23:17Z</time>
      </trkpt>
      <trkpt lat="48.80613" lon="2.03837">
        <ele>168.85</ele>
        <time>2014-11-23T13:23:33Z</time>
      </trkpt>
      <trkpt lat="48.80623" lon="2.03848">
        <ele>168.85</ele>
        <time>2014-11-23T13:23:43Z</time>
      </trkpt>
      <trkpt lat="48.80636" lon="2.03869">
        <ele>168.85</ele>
        <time>2014-11-23T13:24:01Z</time>
      </trkpt>
      <trkpt lat="48.80633" lon="2.03897">
        <ele>168.37</ele>
        <time>2014-11-23T13:24:18Z</time>
      </trkpt>
      <trkpt lat="48.80631" lon="2.0392">
        <ele>168.85</ele>
        <time>2014-11-23T13:24:32Z</time>
      </trkpt>
      <trkpt lat="48.80628" lon="2.03939">
        <ele>168.37</ele>
        <time>2014-11-23T13:24:44Z</time>
      </trkpt>
      <trkpt lat="48.80623" lon="2.03965">
        <ele>168.85</ele>
        <time>2014-11-23T13:25:00Z</time>
      </trkpt>
      <trkpt lat="48.80622" lon="2.03987">
        <ele>168.37</ele>
        <time>2014-11-23T13:25:15Z</time>
      </trkpt>
      <trkpt lat="48.80622" lon="2.03992">
        <ele>168.37</ele>
        <time>2014-11-23T13:25:18Z</time>
      </trkpt>
      <trkpt lat="48.80622" lon="2.04017">
        <ele>168.37</ele>
        <time>2014-11-23T13:25:34Z</time>
      </trkpt>
      <trkpt lat="48.80616" lon="2.04044">
        <ele>167.89</ele>
        <time>2014-11-23T13:25:52Z</time>
      </trkpt>
      <trkpt lat="48.80613" lon="2.04073">
        <ele>168.37</ele>
        <time>2014-11-23T13:26:09Z</time>
      </trkpt>
      <trkpt lat="48.80608" lon="2.04104">
        <ele>167.89</ele>
        <time>2014-11-23T13:26:27Z</time>
      </trkpt>
      <trkpt lat="48.80608" lon="2.04132">
        <ele>167.89</ele>
        <time>2014-11-23T13:26:47Z</time>
      </trkpt>
      <trkpt lat="48.80608" lon="2.04151">
        <ele>168.37</ele>
        <time>2014-11-23T13:26:58Z</time>
      </trkpt>
      <trkpt lat="48.80608" lon="2.04171">
        <ele>168.37</ele>
        <time>2014-11-23T13:27:12Z</time>
      </trkpt>
      <trkpt lat="48.80601" lon="2.04196">
        <ele>168.37</ele>
        <time>2014-11-23T13:27:29Z</time>
      </trkpt>
      <trkpt lat="48.80601" lon="2.04214">
        <ele>167.89</ele>
        <time>2014-11-23T13:27:48Z</time>
      </trkpt>
      <trkpt lat="48.80602" lon="2.0422">
        <ele>167.89</ele>
        <time>2014-11-23T13:28:08Z</time>
      </trkpt>
      <trkpt lat="48.80601" lon="2.04228">
        <ele>167.89</ele>
        <time>2014-11-23T13:28:22Z</time>
      </trkpt>
      <trkpt lat="48.80612" lon="2.04229">
        <ele>167.89</ele>
        <time>2014-11-23T13:28:37Z</time>
      </trkpt>
      <trkpt lat="48.80622" lon="2.04235">
        <ele>167.41</ele>
        <time>2014-11-23T13:28:55Z</time>
      </trkpt>
      <trkpt lat="48.80609" lon="2.04235">
        <ele>167.41</ele>
        <time>2014-11-23T13:29:20Z</time>
      </trkpt>
      <trkpt lat="48.80612" lon="2.0423">
        <ele>167.41</ele>
        <time>2014-11-23T13:29:48Z</time>
      </trkpt>
      <trkpt lat="48.80619" lon="2.04226">
        <ele>167.89</ele>
        <time>2014-11-23T13:30:14Z</time>
      </trkpt>
      <trkpt lat="48.80624" lon="2.04224">
        <ele>167.89</ele>
        <time>2014-11-23T13:30:40Z</time>
      </trkpt>
      <trkpt lat="48.80618" lon="2.04231">
        <ele>168.37</ele>
        <time>2014-11-23T13:30:59Z</time>
      </trkpt>
      <trkpt lat="48.80612" lon="2.04232">
        <ele>168.37</ele>
        <time>2014-11-23T13:31:24Z</time>
      </trkpt>
      <trkpt lat="48.80612" lon="2.04243">
        <ele>168.37</ele>
        <time>2014-11-23T13:31:50Z</time>
      </trkpt>
      <trkpt lat="48.80613" lon="2.04237">
        <ele>168.37</ele>
        <time>2014-11-23T13:32:20Z</time>
      </trkpt>
      <trkpt lat="48.8061" lon="2.0424">
        <ele>168.85</ele>
        <time>2014-11-23T13:32:39Z</time>
      </trkpt>
      <trkpt lat="48.8061" lon="2.04237">
        <ele>168.85</ele>
        <time>2014-11-23T13:33:02Z</time>
      </trkpt>
      <trkpt lat="48.8061" lon="2.0424">
        <ele>168.85</ele>
        <time>2014-11-23T13:33:21Z</time>
      </trkpt>
      <trkpt lat="48.80609" lon="2.04236">
        <ele>168.85</ele>
        <time>2014-11-23T13:33:51Z</time>
      </trkpt>
      <trkpt lat="48.80612" lon="2.04237">
        <ele>168.85</ele>
        <time>2014-11-23T13:34:13Z</time>
      </trkpt>
      <trkpt lat="48.80616" lon="2.04226">
        <ele>168.85</ele>
        <time>2014-11-23T13:34:44Z</time>
      </trkpt>
      <trkpt lat="48.80612" lon="2.04216">
        <ele>168.85</ele>
        <time>2014-11-23T13:35:01Z</time>
      </trkpt>
      <trkpt lat="48.80615" lon="2.04225">
        <ele>168.85</ele>
        <time>2014-11-23T13:35:19Z</time>
      </trkpt>
      <trkpt lat="48.80613" lon="2.04226">
        <ele>169.33</ele>
        <time>2014-11-23T13:35:43Z</time>
      </trkpt>
      <trkpt lat="48.80613" lon="2.04232">
        <ele>169.33</ele>
        <time>2014-11-23T13:36:04Z</time>
      </trkpt>
      <trkpt lat="48.80617" lon="2.04227">
        <ele>169.33</ele>
        <time>2014-11-23T13:36:23Z</time>
      </trkpt>
      <trkpt lat="48.80626" lon="2.04236">
        <ele>168.85</ele>
        <time>2014-11-23T13:36:41Z</time>
      </trkpt>
      <trkpt lat="48.80634" lon="2.04245">
        <ele>167.89</ele>
        <time>2014-11-23T13:36:55Z</time>
      </trkpt>
      <trkpt lat="48.80633" lon="2.04262">
        <ele>166.93</ele>
        <time>2014-11-23T13:37:13Z</time>
      </trkpt>
      <trkpt lat="48.80628" lon="2.04279">
        <ele>167.41</ele>
        <time>2014-11-23T13:37:29Z</time>
      </trkpt>
      <trkpt lat="48.80624" lon="2.04308">
        <ele>166.93</ele>
        <time>2014-11-23T13:37:49Z</time>
      </trkpt>
      <trkpt lat="48.80618" lon="2.04328">
        <ele>166.93</ele>
        <time>2014-11-23T13:38:06Z</time>
      </trkpt>
      <trkpt lat="48.80613" lon="2.04352">
        <ele>166.93</ele>
        <time>2014-11-23T13:38:25Z</time>
      </trkpt>
      <trkpt lat="48.80608" lon="2.04379">
        <ele>166.45</ele>
        <time>2014-11-23T13:38:44Z</time>
      </trkpt>
      <trkpt lat="48.80597" lon="2.04412">
        <ele>166.93</ele>
        <time>2014-11-23T13:39:03Z</time>
      </trkpt>
      <trkpt lat="48.80595" lon="2.04432">
        <ele>166.93</ele>
        <time>2014-11-23T13:39:18Z</time>
      </trkpt>
      <trkpt lat="48.80594" lon="2.0445">
        <ele>167.41</ele>
        <time>2014-11-23T13:39:34Z</time>
      </trkpt>
      <trkpt lat="48.80592" lon="2.04478">
        <ele>167.41</ele>
        <time>2014-11-23T13:39:51Z</time>
      </trkpt>
      <trkpt lat="48.8059" lon="2.04494">
        <ele>167.41</ele>
        <time>2014-11-23T13:40:05Z</time>
      </trkpt>
      <trkpt lat="48.80589" lon="2.04512">
        <ele>168.37</ele>
        <time>2014-11-23T13:40:23Z</time>
      </trkpt>
      <trkpt lat="48.80587" lon="2.04529">
        <ele>169.33</ele>
        <time>2014-11-23T13:40:40Z</time>
      </trkpt>
      <trkpt lat="48.80583" lon="2.04546">
        <ele>169.81</ele>
        <time>2014-11-23T13:40:56Z</time>
      </trkpt>
      <trkpt lat="48.80576" lon="2.04564">
        <ele>170.29</ele>
        <time>2014-11-23T13:41:10Z</time>
      </trkpt>
      <trkpt lat="48.80572" lon="2.04581">
        <ele>170.29</ele>
        <time>2014-11-23T13:41:25Z</time>
      </trkpt>
      <trkpt lat="48.80568" lon="2.046">
        <ele>170.77</ele>
        <time>2014-11-23T13:41:38Z</time>
      </trkpt>
      <trkpt lat="48.80562" lon="2.04618">
        <ele>170.77</ele>
        <time>2014-11-23T13:41:52Z</time>
      </trkpt>
      <trkpt lat="48.80554" lon="2.04637">
        <ele>170.77</ele>
        <time>2014-11-23T13:42:07Z</time>
      </trkpt>
      <trkpt lat="48.80555" lon="2.04652">
        <ele>171.25</ele>
        <time>2014-11-23T13:42:24Z</time>
      </trkpt>
      <trkpt lat="48.80547" lon="2.0468">
        <ele>171.25</ele>
        <time>2014-11-23T13:42:42Z</time>
      </trkpt>
      <trkpt lat="48.80541" lon="2.04689">
        <ele>171.73</ele>
        <time>2014-11-23T13:42:58Z</time>
      </trkpt>
      <trkpt lat="48.80533" lon="2.04706">
        <ele>171.73</ele>
        <time>2014-11-23T13:43:13Z</time>
      </trkpt>
      <trkpt lat="48.80523" lon="2.04728">
        <ele>171.73</ele>
        <time>2014-11-23T13:43:31Z</time>
      </trkpt>
      <trkpt lat="48.80515" lon="2.04739">
        <ele>171.73</ele>
        <time>2014-11-23T13:43:48Z</time>
      </trkpt>
      <trkpt lat="48.80502" lon="2.04749">
        <ele>171.73</ele>
        <time>2014-11-23T13:44:01Z</time>
      </trkpt>
      <trkpt lat="48.80495" lon="2.04766">
        <ele>170.77</ele>
        <time>2014-11-23T13:44:16Z</time>
      </trkpt>
      <trkpt lat="48.80487" lon="2.04782">
        <ele>171.25</ele>
        <time>2014-11-23T13:44:33Z</time>
      </trkpt>
      <trkpt lat="48.80482" lon="2.04796">
        <ele>171.25</ele>
        <time>2014-11-23T13:44:46Z</time>
      </trkpt>
      <trkpt lat="48.80482" lon="2.04822">
        <ele>169.81</ele>
        <time>2014-11-23T13:45:02Z</time>
      </trkpt>
      <trkpt lat="48.80481" lon="2.04843">
        <ele>166.45</ele>
        <time>2014-11-23T13:45:20Z</time>
      </trkpt>
      <trkpt lat="48.80475" lon="2.0487">
        <ele>164.04</ele>
        <time>2014-11-23T13:45:37Z</time>
      </trkpt>
      <trkpt lat="48.80465" lon="2.04886">
        <ele>162.6</ele>
        <time>2014-11-23T13:45:54Z</time>
      </trkpt>
      <trkpt lat="48.80461" lon="2.0489">
        <ele>161.64</ele>
        <time>2014-11-23T13:46:00Z</time>
      </trkpt>
      <trkpt lat="48.8046" lon="2.04893">
        <ele>161.16</ele>
        <time>2014-11-23T13:46:02Z</time>
      </trkpt>
      <trkpt lat="48.80457" lon="2.04907">
        <ele>160.2</ele>
        <time>2014-11-23T13:46:18Z</time>
      </trkpt>
      <trkpt lat="48.80453" lon="2.04925">
        <ele>157.31</ele>
        <time>2014-11-23T13:46:33Z</time>
      </trkpt>
      <trkpt lat="48.80446" lon="2.04942">
        <ele>156.35</ele>
        <time>2014-11-23T13:46:45Z</time>
      </trkpt>
      <trkpt lat="48.8044" lon="2.04948">
        <ele>157.31</ele>
        <time>2014-11-23T13:47:01Z</time>
      </trkpt>
      <trkpt lat="48.80439" lon="2.04944">
        <ele>157.31</ele>
        <time>2014-11-23T13:47:27Z</time>
      </trkpt>
      <trkpt lat="48.80435" lon="2.04948">
        <ele>157.31</ele>
        <time>2014-11-23T13:47:52Z</time>
      </trkpt>
      <trkpt lat="48.8043" lon="2.04959">
        <ele>157.31</ele>
        <time>2014-11-23T13:48:09Z</time>
      </trkpt>
      <trkpt lat="48.80426" lon="2.04965">
        <ele>157.31</ele>
        <time>2014-11-23T13:48:15Z</time>
      </trkpt>
      <trkpt lat="48.80415" lon="2.04981">
        <ele>157.31</ele>
        <time>2014-11-23T13:48:29Z</time>
      </trkpt>
      <trkpt lat="48.80406" lon="2.04988">
        <ele>156.35</ele>
        <time>2014-11-23T13:48:43Z</time>
      </trkpt>
      <trkpt lat="48.80396" lon="2.04986">
        <ele>153.47</ele>
        <time>2014-11-23T13:48:58Z</time>
      </trkpt>
      <trkpt lat="48.80395" lon="2.04985">
        <ele>152.99</ele>
        <time>2014-11-23T13:48:59Z</time>
      </trkpt>
      <trkpt lat="48.80392" lon="2.04983">
        <ele>152.03</ele>
        <time>2014-11-23T13:49:01Z</time>
      </trkpt>
      <trkpt lat="48.80382" lon="2.04976">
        <ele>152.03</ele>
        <time>2014-11-23T13:49:15Z</time>
      </trkpt>
      <trkpt lat="48.80367" lon="2.0497">
        <ele>154.43</ele>
        <time>2014-11-23T13:49:29Z</time>
      </trkpt>
      <trkpt lat="48.80359" lon="2.04964">
        <ele>155.87</ele>
        <time>2014-11-23T13:49:43Z</time>
      </trkpt>
      <trkpt lat="48.80353" lon="2.04961">
        <ele>156.83</ele>
        <time>2014-11-23T13:49:57Z</time>
      </trkpt>
      <trkpt lat="48.80345" lon="2.04961">
        <ele>157.31</ele>
        <time>2014-11-23T13:50:11Z</time>
      </trkpt>
      <trkpt lat="48.80334" lon="2.04957">
        <ele>157.79</ele>
        <time>2014-11-23T13:50:26Z</time>
      </trkpt>
      <trkpt lat="48.80322" lon="2.04955">
        <ele>158.27</ele>
        <time>2014-11-23T13:50:38Z</time>
      </trkpt>
      <trkpt lat="48.8032" lon="2.04954">
        <ele>157.79</ele>
        <time>2014-11-23T13:50:41Z</time>
      </trkpt>
      <trkpt lat="48.80307" lon="2.04948">
        <ele>158.27</ele>
        <time>2014-11-23T13:50:55Z</time>
      </trkpt>
      <trkpt lat="48.80302" lon="2.04945">
        <ele>158.75</ele>
        <time>2014-11-23T13:51:06Z</time>
      </trkpt>
      <trkpt lat="48.80298" lon="2.04938">
        <ele>159.72</ele>
        <time>2014-11-23T13:51:19Z</time>
      </trkpt>
      <trkpt lat="48.80297" lon="2.04939">
        <ele>160.68</ele>
        <time>2014-11-23T13:51:22Z</time>
      </trkpt>
      <trkpt lat="48.80293" lon="2.04936">
        <ele>163.08</ele>
        <time>2014-11-23T13:51:37Z</time>
      </trkpt>
      <trkpt lat="48.80289" lon="2.04932">
        <ele>165</ele>
        <time>2014-11-23T13:51:51Z</time>
      </trkpt>
      <trkpt lat="48.80277" lon="2.04946">
        <ele>165.96</ele>
        <time>2014-11-23T13:52:09Z</time>
      </trkpt>
      <trkpt lat="48.80269" lon="2.04956">
        <ele>166.45</ele>
        <time>2014-11-23T13:52:22Z</time>
      </trkpt>
      <trkpt lat="48.80267" lon="2.04955">
        <ele>166.45</ele>
        <time>2014-11-23T13:52:43Z</time>
      </trkpt>
      <trkpt lat="48.80262" lon="2.04966">
        <ele>166.45</ele>
        <time>2014-11-23T13:53:05Z</time>
      </trkpt>
      <trkpt lat="48.80254" lon="2.0497">
        <ele>167.41</ele>
        <time>2014-11-23T13:53:17Z</time>
      </trkpt>
      <trkpt lat="48.80244" lon="2.04975">
        <ele>168.37</ele>
        <time>2014-11-23T13:53:31Z</time>
      </trkpt>
      <trkpt lat="48.80237" lon="2.04985">
        <ele>168.85</ele>
        <time>2014-11-23T13:53:49Z</time>
      </trkpt>
      <trkpt lat="48.80232" lon="2.04982">
        <ele>169.33</ele>
        <time>2014-11-23T13:54:05Z</time>
      </trkpt>
      <trkpt lat="48.80229" lon="2.0499">
        <ele>169.81</ele>
        <time>2014-11-23T13:54:21Z</time>
      </trkpt>
      <trkpt lat="48.80225" lon="2.04995">
        <ele>169.33</ele>
        <time>2014-11-23T13:54:29Z</time>
      </trkpt>
      <trkpt lat="48.80213" lon="2.05007">
        <ele>169.81</ele>
        <time>2014-11-23T13:54:44Z</time>
      </trkpt>
      <trkpt lat="48.80202" lon="2.05024">
        <ele>169.81</ele>
        <time>2014-11-23T13:54:59Z</time>
      </trkpt>
      <trkpt lat="48.80187" lon="2.05046">
        <ele>170.29</ele>
        <time>2014-11-23T13:55:15Z</time>
      </trkpt>
      <trkpt lat="48.80177" lon="2.05066">
        <ele>169.81</ele>
        <time>2014-11-23T13:55:33Z</time>
      </trkpt>
      <trkpt lat="48.80166" lon="2.05082">
        <ele>170.29</ele>
        <time>2014-11-23T13:55:47Z</time>
      </trkpt>
      <trkpt lat="48.80153" lon="2.05102">
        <ele>170.29</ele>
        <time>2014-11-23T13:56:03Z</time>
      </trkpt>
      <trkpt lat="48.80146" lon="2.05114">
        <ele>170.29</ele>
        <time>2014-11-23T13:56:13Z</time>
      </trkpt>
      <trkpt lat="48.80138" lon="2.05133">
        <ele>170.77</ele>
        <time>2014-11-23T13:56:27Z</time>
      </trkpt>
      <trkpt lat="48.80133" lon="2.05145">
        <ele>171.25</ele>
        <time>2014-11-23T13:56:36Z</time>
      </trkpt>
      <trkpt lat="48.80128" lon="2.0516">
        <ele>171.73</ele>
        <time>2014-11-23T13:56:46Z</time>
      </trkpt>
      <trkpt lat="48.80123" lon="2.05178">
        <ele>172.21</ele>
        <time>2014-11-23T13:56:58Z</time>
      </trkpt>
      <trkpt lat="48.80117" lon="2.05194">
        <ele>172.69</ele>
        <time>2014-11-23T13:57:10Z</time>
      </trkpt>
      <trkpt lat="48.80107" lon="2.05213">
        <ele>173.17</ele>
        <time>2014-11-23T13:57:25Z</time>
      </trkpt>
      <trkpt lat="48.80102" lon="2.05221">
        <ele>173.17</ele>
        <time>2014-11-23T13:57:32Z</time>
      </trkpt>
      <trkpt lat="48.80088" lon="2.05227">
        <ele>172.69</ele>
        <time>2014-11-23T13:57:46Z</time>
      </trkpt>
      <trkpt lat="48.80084" lon="2.05228">
        <ele>173.17</ele>
        <time>2014-11-23T13:57:49Z</time>
      </trkpt>
      <trkpt lat="48.80074" lon="2.05216">
        <ele>173.17</ele>
        <time>2014-11-23T13:58:07Z</time>
      </trkpt>
      <trkpt lat="48.80072" lon="2.05213">
        <ele>172.69</ele>
        <time>2014-11-23T13:58:24Z</time>
      </trkpt>
      <trkpt lat="48.80066" lon="2.05202">
        <ele>172.69</ele>
        <time>2014-11-23T13:58:42Z</time>
      </trkpt>
      <trkpt lat="48.80065" lon="2.05203">
        <ele>172.69</ele>
        <time>2014-11-23T13:58:51Z</time>
      </trkpt>
      <trkpt lat="48.8006" lon="2.05212">
        <ele>172.69</ele>
        <time>2014-11-23T13:59:06Z</time>
      </trkpt>
      <trkpt lat="48.80065" lon="2.052">
        <ele>172.69</ele>
        <time>2014-11-23T13:59:20Z</time>
      </trkpt>
      <trkpt lat="48.80062" lon="2.05187">
        <ele>172.21</ele>
        <time>2014-11-23T13:59:29Z</time>
      </trkpt>
      <trkpt lat="48.80056" lon="2.05168">
        <ele>172.21</ele>
        <time>2014-11-23T13:59:45Z</time>
      </trkpt>
      <trkpt lat="48.80051" lon="2.05157">
        <ele>172.21</ele>
        <time>2014-11-23T14:00:01Z</time>
      </trkpt>
      <trkpt lat="48.80047" lon="2.05149">
        <ele>171.73</ele>
        <time>2014-11-23T14:00:17Z</time>
      </trkpt>
      <trkpt lat="48.8004" lon="2.05146">
        <ele>171.25</ele>
        <time>2014-11-23T14:00:34Z</time>
      </trkpt>
      <trkpt lat="48.80034" lon="2.05158">
        <ele>170.77</ele>
        <time>2014-11-23T14:00:49Z</time>
      </trkpt>
      <trkpt lat="48.80036" lon="2.05176">
        <ele>169.81</ele>
        <time>2014-11-23T14:01:04Z</time>
      </trkpt>
      <trkpt lat="48.80039" lon="2.05178">
        <ele>169.81</ele>
        <time>2014-11-23T14:01:19Z</time>
      </trkpt>
      <trkpt lat="48.80042" lon="2.05202">
        <ele>168.85</ele>
        <time>2014-11-23T14:01:37Z</time>
      </trkpt>
      <trkpt lat="48.80046" lon="2.05223">
        <ele>168.37</ele>
        <time>2014-11-23T14:01:54Z</time>
      </trkpt>
      <trkpt lat="48.80039" lon="2.05238">
        <ele>167.89</ele>
        <time>2014-11-23T14:02:09Z</time>
      </trkpt>
      <trkpt lat="48.80027" lon="2.05248">
        <ele>167.89</ele>
        <time>2014-11-23T14:02:24Z</time>
      </trkpt>
      <trkpt lat="48.80028" lon="2.05245">
        <ele>167.89</ele>
        <time>2014-11-23T14:02:51Z</time>
      </trkpt>
      <trkpt lat="48.80027" lon="2.05241">
        <ele>167.89</ele>
        <time>2014-11-23T14:03:27Z</time>
      </trkpt>
      <trkpt lat="48.80022" lon="2.05247">
        <ele>167.89</ele>
        <time>2014-11-23T14:03:32Z</time>
      </trkpt>
      <trkpt lat="48.80011" lon="2.05259">
        <ele>167.89</ele>
        <time>2014-11-23T14:03:44Z</time>
      </trkpt>
      <trkpt lat="48.79996" lon="2.05271">
        <ele>168.37</ele>
        <time>2014-11-23T14:04:00Z</time>
      </trkpt>
      <trkpt lat="48.79992" lon="2.05278">
        <ele>168.37</ele>
        <time>2014-11-23T14:04:07Z</time>
      </trkpt>
      <trkpt lat="48.79983" lon="2.05286">
        <ele>168.37</ele>
        <time>2014-11-23T14:04:17Z</time>
      </trkpt>
      <trkpt lat="48.79964" lon="2.05307">
        <ele>168.37</ele>
        <time>2014-11-23T14:04:34Z</time>
      </trkpt>
      <trkpt lat="48.79956" lon="2.05324">
        <ele>167.89</ele>
        <time>2014-11-23T14:04:48Z</time>
      </trkpt>
      <trkpt lat="48.79953" lon="2.05336">
        <ele>167.89</ele>
        <time>2014-11-23T14:05:07Z</time>
      </trkpt>
      <trkpt lat="48.79951" lon="2.05335">
        <ele>167.89</ele>
        <time>2014-11-23T14:05:35Z</time>
      </trkpt>
      <trkpt lat="48.79949" lon="2.05331">
        <ele>167.41</ele>
        <time>2014-11-23T14:05:53Z</time>
      </trkpt>
      <trkpt lat="48.79947" lon="2.0533">
        <ele>167.41</ele>
        <time>2014-11-23T14:06:18Z</time>
      </trkpt>
      <trkpt lat="48.79947" lon="2.05341">
        <ele>167.41</ele>
        <time>2014-11-23T14:06:44Z</time>
      </trkpt>
      <trkpt lat="48.79949" lon="2.05344">
        <ele>167.41</ele>
        <time>2014-11-23T14:07:01Z</time>
      </trkpt>
      <trkpt lat="48.79949" lon="2.05348">
        <ele>166.93</ele>
        <time>2014-11-23T14:07:22Z</time>
      </trkpt>
      <trkpt lat="48.79943" lon="2.05356">
        <ele>166.93</ele>
        <time>2014-11-23T14:07:37Z</time>
      </trkpt>
      <trkpt lat="48.79938" lon="2.05369">
        <ele>166.93</ele>
        <time>2014-11-23T14:07:52Z</time>
      </trkpt>
      <trkpt lat="48.79937" lon="2.05376">
        <ele>166.93</ele>
        <time>2014-11-23T14:08:12Z</time>
      </trkpt>
      <trkpt lat="48.79938" lon="2.05378">
        <ele>166.93</ele>
        <time>2014-11-23T14:08:37Z</time>
      </trkpt>
      <trkpt lat="48.79944" lon="2.05379">
        <ele>166.93</ele>
        <time>2014-11-23T14:09:00Z</time>
      </trkpt>
      <trkpt lat="48.79947" lon="2.05378">
        <ele>166.93</ele>
        <time>2014-11-23T14:09:29Z</time>
      </trkpt>
      <trkpt lat="48.79946" lon="2.05376">
        <ele>166.93</ele>
        <time>2014-11-23T14:10:03Z</time>
      </trkpt>
      <trkpt lat="48.7994" lon="2.05381">
        <ele>167.41</ele>
        <time>2014-11-23T14:10:23Z</time>
      </trkpt>
      <trkpt lat="48.79933" lon="2.05401">
        <ele>166.45</ele>
        <time>2014-11-23T14:10:41Z</time>
      </trkpt>
      <trkpt lat="48.79931" lon="2.05418">
        <ele>166.45</ele>
        <time>2014-11-23T14:10:59Z</time>
      </trkpt>
      <trkpt lat="48.79933" lon="2.05424">
        <ele>166.45</ele>
        <time>2014-11-23T14:11:27Z</time>
      </trkpt>
      <trkpt lat="48.7993" lon="2.05446">
        <ele>166.45</ele>
        <time>2014-11-23T14:11:45Z</time>
      </trkpt>
      <trkpt lat="48.79931" lon="2.05469">
        <ele>166.45</ele>
        <time>2014-11-23T14:12:02Z</time>
      </trkpt>
      <trkpt lat="48.7993" lon="2.05491">
        <ele>166.93</ele>
        <time>2014-11-23T14:12:17Z</time>
      </trkpt>
      <trkpt lat="48.79928" lon="2.05514">
        <ele>166.45</ele>
        <time>2014-11-23T14:12:32Z</time>
      </trkpt>
      <trkpt lat="48.79926" lon="2.05535">
        <ele>166.93</ele>
        <time>2014-11-23T14:12:47Z</time>
      </trkpt>
      <trkpt lat="48.7992" lon="2.05553">
        <ele>166.93</ele>
        <time>2014-11-23T14:13:02Z</time>
      </trkpt>
      <trkpt lat="48.79915" lon="2.05566">
        <ele>166.93</ele>
        <time>2014-11-23T14:13:14Z</time>
      </trkpt>
      <trkpt lat="48.79907" lon="2.05572">
        <ele>166.45</ele>
        <time>2014-11-23T14:13:23Z</time>
      </trkpt>
      <trkpt lat="48.79905" lon="2.05574">
        <ele>166.45</ele>
        <time>2014-11-23T14:13:25Z</time>
      </trkpt>
      <trkpt lat="48.79897" lon="2.05581">
        <ele>166.45</ele>
        <time>2014-11-23T14:13:34Z</time>
      </trkpt>
      <trkpt lat="48.79883" lon="2.05595">
        <ele>165.96</ele>
        <time>2014-11-23T14:13:50Z</time>
      </trkpt>
      <trkpt lat="48.79873" lon="2.05608">
        <ele>165.96</ele>
        <time>2014-11-23T14:14:04Z</time>
      </trkpt>
      <trkpt lat="48.79862" lon="2.05618">
        <ele>165.96</ele>
        <time>2014-11-23T14:14:19Z</time>
      </trkpt>
      <trkpt lat="48.79848" lon="2.05636">
        <ele>165.48</ele>
        <time>2014-11-23T14:14:36Z</time>
      </trkpt>
      <trkpt lat="48.79842" lon="2.0564">
        <ele>165</ele>
        <time>2014-11-23T14:14:41Z</time>
      </trkpt>
      <trkpt lat="48.79831" lon="2.05648">
        <ele>165</ele>
        <time>2014-11-23T14:14:54Z</time>
      </trkpt>
      <trkpt lat="48.79826" lon="2.05654">
        <ele>165</ele>
        <time>2014-11-23T14:15:01Z</time>
      </trkpt>
      <trkpt lat="48.79811" lon="2.05662">
        <ele>164.52</ele>
        <time>2014-11-23T14:15:16Z</time>
      </trkpt>
      <trkpt lat="48.79801" lon="2.05669">
        <ele>164.04</ele>
        <time>2014-11-23T14:15:25Z</time>
      </trkpt>
      <trkpt lat="48.79795" lon="2.05671">
        <ele>164.52</ele>
        <time>2014-11-23T14:15:30Z</time>
      </trkpt>
      <trkpt lat="48.7978" lon="2.05681">
        <ele>164.04</ele>
        <time>2014-11-23T14:15:45Z</time>
      </trkpt>
      <trkpt lat="48.79768" lon="2.05686">
        <ele>164.04</ele>
        <time>2014-11-23T14:15:58Z</time>
      </trkpt>
      <trkpt lat="48.79758" lon="2.05688">
        <ele>164.04</ele>
        <time>2014-11-23T14:16:07Z</time>
      </trkpt>
      <trkpt lat="48.79743" lon="2.05698">
        <ele>163.56</ele>
        <time>2014-11-23T14:16:22Z</time>
      </trkpt>
      <trkpt lat="48.79726" lon="2.05711">
        <ele>164.04</ele>
        <time>2014-11-23T14:16:39Z</time>
      </trkpt>
      <trkpt lat="48.79716" lon="2.05715">
        <ele>164.04</ele>
        <time>2014-11-23T14:16:53Z</time>
      </trkpt>
      <trkpt lat="48.79717" lon="2.05722">
        <ele>164.04</ele>
        <time>2014-11-23T14:17:09Z</time>
      </trkpt>
      <trkpt lat="48.79717" lon="2.05723">
        <ele>164.04</ele>
        <time>2014-11-23T14:17:10Z</time>
      </trkpt>
      <trkpt lat="48.79721" lon="2.05735">
        <ele>164.52</ele>
        <time>2014-11-23T14:17:19Z</time>
      </trkpt>
      <trkpt lat="48.79726" lon="2.0576">
        <ele>164.04</ele>
        <time>2014-11-23T14:17:37Z</time>
      </trkpt>
      <trkpt lat="48.79727" lon="2.05763">
        <ele>164.04</ele>
        <time>2014-11-23T14:17:40Z</time>
      </trkpt>
      <trkpt lat="48.79731" lon="2.05774">
        <ele>164.04</ele>
        <time>2014-11-23T14:17:54Z</time>
      </trkpt>
      <trkpt lat="48.79725" lon="2.05775">
        <ele>163.56</ele>
        <time>2014-11-23T14:18:14Z</time>
      </trkpt>
      <trkpt lat="48.79707" lon="2.05785">
        <ele>162.6</ele>
        <time>2014-11-23T14:18:31Z</time>
      </trkpt>
      <trkpt lat="48.797" lon="2.05783">
        <ele>162.6</ele>
        <time>2014-11-23T14:18:39Z</time>
      </trkpt>
      <trkpt lat="48.79691" lon="2.05783">
        <ele>162.12</ele>
        <time>2014-11-23T14:18:47Z</time>
      </trkpt>
      <trkpt lat="48.79674" lon="2.05784">
        <ele>162.12</ele>
        <time>2014-11-23T14:19:00Z</time>
      </trkpt>
      <trkpt lat="48.79663" lon="2.05784">
        <ele>162.12</ele>
        <time>2014-11-23T14:19:14Z</time>
      </trkpt>
      <trkpt lat="48.79651" lon="2.05783">
        <ele>162.12</ele>
        <time>2014-11-23T14:19:26Z</time>
      </trkpt>
      <trkpt lat="48.79638" lon="2.05781">
        <ele>161.64</ele>
        <time>2014-11-23T14:19:40Z</time>
      </trkpt>
      <trkpt lat="48.79624" lon="2.05785">
        <ele>161.16</ele>
        <time>2014-11-23T14:19:56Z</time>
      </trkpt>
      <trkpt lat="48.79621" lon="2.05796">
        <ele>161.16</ele>
        <time>2014-11-23T14:20:03Z</time>
      </trkpt>
      <trkpt lat="48.79616" lon="2.05822">
        <ele>161.16</ele>
        <time>2014-11-23T14:20:21Z</time>
      </trkpt>
      <trkpt lat="48.79614" lon="2.05849">
        <ele>161.64</ele>
        <time>2014-11-23T14:20:35Z</time>
      </trkpt>
      <trkpt lat="48.79613" lon="2.05862">
        <ele>161.64</ele>
        <time>2014-11-23T14:20:43Z</time>
      </trkpt>
      <trkpt lat="48.79608" lon="2.05888">
        <ele>161.64</ele>
        <time>2014-11-23T14:20:57Z</time>
      </trkpt>
      <trkpt lat="48.79605" lon="2.05912">
        <ele>161.64</ele>
        <time>2014-11-23T14:21:12Z</time>
      </trkpt>
      <trkpt lat="48.79604" lon="2.05913">
        <ele>161.64</ele>
        <time>2014-11-23T14:21:14Z</time>
      </trkpt>
      <trkpt lat="48.79596" lon="2.0592">
        <ele>163.08</ele>
        <time>2014-11-23T14:21:26Z</time>
      </trkpt>
      <trkpt lat="48.79593" lon="2.0594">
        <ele>164.04</ele>
        <time>2014-11-23T14:21:39Z</time>
      </trkpt>
      <trkpt lat="48.79589" lon="2.05962">
        <ele>165</ele>
        <time>2014-11-23T14:21:53Z</time>
      </trkpt>
      <trkpt lat="48.79586" lon="2.05985">
        <ele>166.45</ele>
        <time>2014-11-23T14:22:07Z</time>
      </trkpt>
      <trkpt lat="48.79585" lon="2.0599">
        <ele>166.45</ele>
        <time>2014-11-23T14:22:11Z</time>
      </trkpt>
      <trkpt lat="48.79585" lon="2.05993">
        <ele>166.93</ele>
        <time>2014-11-23T14:22:13Z</time>
      </trkpt>
      <trkpt lat="48.79581" lon="2.06016">
        <ele>166.45</ele>
        <time>2014-11-23T14:22:26Z</time>
      </trkpt>
      <trkpt lat="48.7958" lon="2.06043">
        <ele>166.45</ele>
        <time>2014-11-23T14:22:41Z</time>
      </trkpt>
      <trkpt lat="48.79579" lon="2.06066">
        <ele>166.45</ele>
        <time>2014-11-23T14:22:56Z</time>
      </trkpt>
      <trkpt lat="48.79578" lon="2.06096">
        <ele>165.96</ele>
        <time>2014-11-23T14:23:12Z</time>
      </trkpt>
      <trkpt lat="48.79576" lon="2.06125">
        <ele>165.96</ele>
        <time>2014-11-23T14:23:29Z</time>
      </trkpt>
      <trkpt lat="48.79573" lon="2.06149">
        <ele>165.48</ele>
        <time>2014-11-23T14:23:44Z</time>
      </trkpt>
      <trkpt lat="48.79568" lon="2.06175">
        <ele>165.48</ele>
        <time>2014-11-23T14:24:00Z</time>
      </trkpt>
      <trkpt lat="48.79565" lon="2.06197">
        <ele>165</ele>
        <time>2014-11-23T14:24:12Z</time>
      </trkpt>
      <trkpt lat="48.79565" lon="2.06201">
        <ele>164.52</ele>
        <time>2014-11-23T14:24:15Z</time>
      </trkpt>
      <trkpt lat="48.79564" lon="2.06207">
        <ele>165</ele>
        <time>2014-11-23T14:24:19Z</time>
      </trkpt>
      <trkpt lat="48.79563" lon="2.06213">
        <ele>164.52</ele>
        <time>2014-11-23T14:24:23Z</time>
      </trkpt>
      <trkpt lat="48.79559" lon="2.06242">
        <ele>164.04</ele>
        <time>2014-11-23T14:24:39Z</time>
      </trkpt>
      <trkpt lat="48.79554" lon="2.06277">
        <ele>163.56</ele>
        <time>2014-11-23T14:24:59Z</time>
      </trkpt>
      <trkpt lat="48.79551" lon="2.06303">
        <ele>163.08</ele>
        <time>2014-11-23T14:25:14Z</time>
      </trkpt>
      <trkpt lat="48.79551" lon="2.06306">
        <ele>162.6</ele>
        <time>2014-11-23T14:25:16Z</time>
      </trkpt>
      <trkpt lat="48.79547" lon="2.06339">
        <ele>162.12</ele>
        <time>2014-11-23T14:25:34Z</time>
      </trkpt>
      <trkpt lat="48.79541" lon="2.06372">
        <ele>161.16</ele>
        <time>2014-11-23T14:25:51Z</time>
      </trkpt>
      <trkpt lat="48.79538" lon="2.06395">
        <ele>161.64</ele>
        <time>2014-11-23T14:26:08Z</time>
      </trkpt>
      <trkpt lat="48.79534" lon="2.06391">
        <ele>161.64</ele>
        <time>2014-11-23T14:26:15Z</time>
      </trkpt>
      <trkpt lat="48.7952" lon="2.06394">
        <ele>161.16</ele>
        <time>2014-11-23T14:26:30Z</time>
      </trkpt>
      <trkpt lat="48.79507" lon="2.06405">
        <ele>160.68</ele>
        <time>2014-11-23T14:26:46Z</time>
      </trkpt>
      <trkpt lat="48.79505" lon="2.06407">
        <ele>160.68</ele>
        <time>2014-11-23T14:27:04Z</time>
      </trkpt>
      <trkpt lat="48.79503" lon="2.06408">
        <ele>161.16</ele>
        <time>2014-11-23T14:27:21Z</time>
      </trkpt>
      <trkpt lat="48.79496" lon="2.06406">
        <ele>160.68</ele>
        <time>2014-11-23T14:27:29Z</time>
      </trkpt>
      <trkpt lat="48.79483" lon="2.06404">
        <ele>161.16</ele>
        <time>2014-11-23T14:27:43Z</time>
      </trkpt>
      <trkpt lat="48.79473" lon="2.06409">
        <ele>160.68</ele>
        <time>2014-11-23T14:27:57Z</time>
      </trkpt>
      <trkpt lat="48.79471" lon="2.06408">
        <ele>160.68</ele>
        <time>2014-11-23T14:28:01Z</time>
      </trkpt>
      <trkpt lat="48.79464" lon="2.06408">
        <ele>160.68</ele>
        <time>2014-11-23T14:28:07Z</time>
      </trkpt>
      <trkpt lat="48.79459" lon="2.06407">
        <ele>160.68</ele>
        <time>2014-11-23T14:28:11Z</time>
      </trkpt>
      <trkpt lat="48.79455" lon="2.06405">
        <ele>160.68</ele>
        <time>2014-11-23T14:28:14Z</time>
      </trkpt>
      <trkpt lat="48.79451" lon="2.06406">
        <ele>160.68</ele>
        <time>2014-11-23T14:28:18Z</time>
      </trkpt>
      <trkpt lat="48.79439" lon="2.06399">
        <ele>160.68</ele>
        <time>2014-11-23T14:28:29Z</time>
      </trkpt>
      <trkpt lat="48.79432" lon="2.06397">
        <ele>160.68</ele>
        <time>2014-11-23T14:28:34Z</time>
      </trkpt>
      <trkpt lat="48.79413" lon="2.06387">
        <ele>160.68</ele>
        <time>2014-11-23T14:28:49Z</time>
      </trkpt>
      <trkpt lat="48.79398" lon="2.06378">
        <ele>160.2</ele>
        <time>2014-11-23T14:29:03Z</time>
      </trkpt>
      <trkpt lat="48.79378" lon="2.06372">
        <ele>160.2</ele>
        <time>2014-11-23T14:29:19Z</time>
      </trkpt>
      <trkpt lat="48.79368" lon="2.06366">
        <ele>160.2</ele>
        <time>2014-11-23T14:29:29Z</time>
      </trkpt>
      <trkpt lat="48.79349" lon="2.06354">
        <ele>159.72</ele>
        <time>2014-11-23T14:29:48Z</time>
      </trkpt>
      <trkpt lat="48.79343" lon="2.06363">
        <ele>158.27</ele>
        <time>2014-11-23T14:30:03Z</time>
      </trkpt>
      <trkpt lat="48.79337" lon="2.0639">
        <ele>158.27</ele>
        <time>2014-11-23T14:30:21Z</time>
      </trkpt>
      <trkpt lat="48.79337" lon="2.06391">
        <ele>158.27</ele>
        <time>2014-11-23T14:30:22Z</time>
      </trkpt>
      <trkpt lat="48.79334" lon="2.06413">
        <ele>158.75</ele>
        <time>2014-11-23T14:30:35Z</time>
      </trkpt>
      <trkpt lat="48.79332" lon="2.0643">
        <ele>158.75</ele>
        <time>2014-11-23T14:30:45Z</time>
      </trkpt>
      <trkpt lat="48.79325" lon="2.06437">
        <ele>158.75</ele>
        <time>2014-11-23T14:30:53Z</time>
      </trkpt>
      <trkpt lat="48.79309" lon="2.06431">
        <ele>159.24</ele>
        <time>2014-11-23T14:31:07Z</time>
      </trkpt>
      <trkpt lat="48.79294" lon="2.06425">
        <ele>159.24</ele>
        <time>2014-11-23T14:31:19Z</time>
      </trkpt>
      <trkpt lat="48.79281" lon="2.06426">
        <ele>159.24</ele>
        <time>2014-11-23T14:31:33Z</time>
      </trkpt>
      <trkpt lat="48.79266" lon="2.06424">
        <ele>159.72</ele>
        <time>2014-11-23T14:31:49Z</time>
      </trkpt>
      <trkpt lat="48.79251" lon="2.06429">
        <ele>159.72</ele>
        <time>2014-11-23T14:32:05Z</time>
      </trkpt>
      <trkpt lat="48.79236" lon="2.06441">
        <ele>159.72</ele>
        <time>2014-11-23T14:32:19Z</time>
      </trkpt>
      <trkpt lat="48.79219" lon="2.06454">
        <ele>160.2</ele>
        <time>2014-11-23T14:32:32Z</time>
      </trkpt>
      <trkpt lat="48.79204" lon="2.06459">
        <ele>160.2</ele>
        <time>2014-11-23T14:32:45Z</time>
      </trkpt>
      <trkpt lat="48.79192" lon="2.06463">
        <ele>160.2</ele>
        <time>2014-11-23T14:32:59Z</time>
      </trkpt>
      <trkpt lat="48.7918" lon="2.06463">
        <ele>160.2</ele>
        <time>2014-11-23T14:33:12Z</time>
      </trkpt>
      <trkpt lat="48.79173" lon="2.06458">
        <ele>160.2</ele>
        <time>2014-11-23T14:33:18Z</time>
      </trkpt>
      <trkpt lat="48.79158" lon="2.06454">
        <ele>159.72</ele>
        <time>2014-11-23T14:33:33Z</time>
      </trkpt>
      <trkpt lat="48.79155" lon="2.06453">
        <ele>160.2</ele>
        <time>2014-11-23T14:33:36Z</time>
      </trkpt>
      <trkpt lat="48.79135" lon="2.06458">
        <ele>158.75</ele>
        <time>2014-11-23T14:33:49Z</time>
      </trkpt>
      <trkpt lat="48.79124" lon="2.06484">
        <ele>159.72</ele>
        <time>2014-11-23T14:34:05Z</time>
      </trkpt>
      <trkpt lat="48.79119" lon="2.06492">
        <ele>159.24</ele>
        <time>2014-11-23T14:34:11Z</time>
      </trkpt>
      <trkpt lat="48.79111" lon="2.0651">
        <ele>159.72</ele>
        <time>2014-11-23T14:34:24Z</time>
      </trkpt>
      <trkpt lat="48.79103" lon="2.06523">
        <ele>159.24</ele>
        <time>2014-11-23T14:34:37Z</time>
      </trkpt>
      <trkpt lat="48.79091" lon="2.06545">
        <ele>159.24</ele>
        <time>2014-11-23T14:34:54Z</time>
      </trkpt>
      <trkpt lat="48.79088" lon="2.06551">
        <ele>159.24</ele>
        <time>2014-11-23T14:34:59Z</time>
      </trkpt>
      <trkpt lat="48.79077" lon="2.06567">
        <ele>159.24</ele>
        <time>2014-11-23T14:35:15Z</time>
      </trkpt>
      <trkpt lat="48.79062" lon="2.06576">
        <ele>159.24</ele>
        <time>2014-11-23T14:35:33Z</time>
      </trkpt>
      <trkpt lat="48.79038" lon="2.06591">
        <ele>159.24</ele>
        <time>2014-11-23T14:35:52Z</time>
      </trkpt>
      <trkpt lat="48.79035" lon="2.06591">
        <ele>158.75</ele>
        <time>2014-11-23T14:35:55Z</time>
      </trkpt>
      <trkpt lat="48.79031" lon="2.06593">
        <ele>158.27</ele>
        <time>2014-11-23T14:35:59Z</time>
      </trkpt>
      <trkpt lat="48.79024" lon="2.06619">
        <ele>157.79</ele>
        <time>2014-11-23T14:36:16Z</time>
      </trkpt>
      <trkpt lat="48.79021" lon="2.06645">
        <ele>157.79</ele>
        <time>2014-11-23T14:36:31Z</time>
      </trkpt>
      <trkpt lat="48.79017" lon="2.06673">
        <ele>157.79</ele>
        <time>2014-11-23T14:36:47Z</time>
      </trkpt>
      <trkpt lat="48.7901" lon="2.06704">
        <ele>157.79</ele>
        <time>2014-11-23T14:37:05Z</time>
      </trkpt>
      <trkpt lat="48.79005" lon="2.06729">
        <ele>157.31</ele>
        <time>2014-11-23T14:37:21Z</time>
      </trkpt>
      <trkpt lat="48.78999" lon="2.06759">
        <ele>157.31</ele>
        <time>2014-11-23T14:37:37Z</time>
      </trkpt>
      <trkpt lat="48.78997" lon="2.06776">
        <ele>156.83</ele>
        <time>2014-11-23T14:37:52Z</time>
      </trkpt>
      <trkpt lat="48.78989" lon="2.06806">
        <ele>156.35</ele>
        <time>2014-11-23T14:38:10Z</time>
      </trkpt>
      <trkpt lat="48.78981" lon="2.06834">
        <ele>155.87</ele>
        <time>2014-11-23T14:38:27Z</time>
      </trkpt>
      <trkpt lat="48.7897" lon="2.06862">
        <ele>155.87</ele>
        <time>2014-11-23T14:38:46Z</time>
      </trkpt>
      <trkpt lat="48.78962" lon="2.06892">
        <ele>155.87</ele>
        <time>2014-11-23T14:39:03Z</time>
      </trkpt>
      <trkpt lat="48.78972" lon="2.06913">
        <ele>156.35</ele>
        <time>2014-11-23T14:39:17Z</time>
      </trkpt>
      <trkpt lat="48.78983" lon="2.06935">
        <ele>157.31</ele>
        <time>2014-11-23T14:39:35Z</time>
      </trkpt>
      <trkpt lat="48.79002" lon="2.06953">
        <ele>157.31</ele>
        <time>2014-11-23T14:39:55Z</time>
      </trkpt>
      <trkpt lat="48.79018" lon="2.06971">
        <ele>157.31</ele>
        <time>2014-11-23T14:40:14Z</time>
      </trkpt>
      <trkpt lat="48.79032" lon="2.06997">
        <ele>157.79</ele>
        <time>2014-11-23T14:40:32Z</time>
      </trkpt>
      <trkpt lat="48.7905" lon="2.07025">
        <ele>158.75</ele>
        <time>2014-11-23T14:40:53Z</time>
      </trkpt>
      <trkpt lat="48.79062" lon="2.07049">
        <ele>159.72</ele>
        <time>2014-11-23T14:41:13Z</time>
      </trkpt>
      <trkpt lat="48.7908" lon="2.07062">
        <ele>160.2</ele>
        <time>2014-11-23T14:41:35Z</time>
      </trkpt>
      <trkpt lat="48.79099" lon="2.0708">
        <ele>160.68</ele>
        <time>2014-11-23T14:42:00Z</time>
      </trkpt>
      <trkpt lat="48.79115" lon="2.07076">
        <ele>160.68</ele>
        <time>2014-11-23T14:42:18Z</time>
      </trkpt>
      <trkpt lat="48.79117" lon="2.07074">
        <ele>160.68</ele>
        <time>2014-11-23T14:42:40Z</time>
      </trkpt>
      <trkpt lat="48.79117" lon="2.07071">
        <ele>160.68</ele>
        <time>2014-11-23T14:42:59Z</time>
      </trkpt>
      <trkpt lat="48.79127" lon="2.07073">
        <ele>161.16</ele>
        <time>2014-11-23T14:43:15Z</time>
      </trkpt>
      <trkpt lat="48.79142" lon="2.07083">
        <ele>161.16</ele>
        <time>2014-11-23T14:43:34Z</time>
      </trkpt>
      <trkpt lat="48.79159" lon="2.07088">
        <ele>160.68</ele>
        <time>2014-11-23T14:43:54Z</time>
      </trkpt>
      <trkpt lat="48.7918" lon="2.07094">
        <ele>160.2</ele>
        <time>2014-11-23T14:44:13Z</time>
      </trkpt>
      <trkpt lat="48.7919" lon="2.07095">
        <ele>160.2</ele>
        <time>2014-11-23T14:44:24Z</time>
      </trkpt>
      <trkpt lat="48.79207" lon="2.071">
        <ele>160.2</ele>
        <time>2014-11-23T14:44:41Z</time>
      </trkpt>
      <trkpt lat="48.79214" lon="2.07104">
        <ele>160.2</ele>
        <time>2014-11-23T14:44:50Z</time>
      </trkpt>
      <trkpt lat="48.79222" lon="2.07109">
        <ele>160.2</ele>
        <time>2014-11-23T14:44:59Z</time>
      </trkpt>
      <trkpt lat="48.79239" lon="2.07115">
        <ele>159.72</ele>
        <time>2014-11-23T14:45:15Z</time>
      </trkpt>
      <trkpt lat="48.79244" lon="2.07115">
        <ele>160.2</ele>
        <time>2014-11-23T14:45:20Z</time>
      </trkpt>
      <trkpt lat="48.7926" lon="2.07118">
        <ele>160.2</ele>
        <time>2014-11-23T14:45:37Z</time>
      </trkpt>
      <trkpt lat="48.79276" lon="2.07126">
        <ele>160.2</ele>
        <time>2014-11-23T14:45:52Z</time>
      </trkpt>
      <trkpt lat="48.79292" lon="2.07132">
        <ele>159.72</ele>
        <time>2014-11-23T14:46:08Z</time>
      </trkpt>
      <trkpt lat="48.79308" lon="2.0714">
        <ele>159.72</ele>
        <time>2014-11-23T14:46:21Z</time>
      </trkpt>
      <trkpt lat="48.79332" lon="2.07147">
        <ele>160.2</ele>
        <time>2014-11-23T14:46:41Z</time>
      </trkpt>
      <trkpt lat="48.79351" lon="2.07156">
        <ele>160.2</ele>
        <time>2014-11-23T14:46:57Z</time>
      </trkpt>
      <trkpt lat="48.79371" lon="2.0716">
        <ele>160.2</ele>
        <time>2014-11-23T14:47:17Z</time>
      </trkpt>
      <trkpt lat="48.79387" lon="2.07168">
        <ele>160.2</ele>
        <time>2014-11-23T14:47:33Z</time>
      </trkpt>
      <trkpt lat="48.79402" lon="2.07175">
        <ele>160.2</ele>
        <time>2014-11-23T14:47:49Z</time>
      </trkpt>
      <trkpt lat="48.79419" lon="2.07172">
        <ele>160.2</ele>
        <time>2014-11-23T14:48:04Z</time>
      </trkpt>
      <trkpt lat="48.79433" lon="2.07185">
        <ele>160.2</ele>
        <time>2014-11-23T14:48:20Z</time>
      </trkpt>
      <trkpt lat="48.79438" lon="2.07186">
        <ele>160.2</ele>
        <time>2014-11-23T14:48:23Z</time>
      </trkpt>
      <trkpt lat="48.79455" lon="2.07192">
        <ele>160.68</ele>
        <time>2014-11-23T14:48:40Z</time>
      </trkpt>
      <trkpt lat="48.79474" lon="2.07192">
        <ele>160.68</ele>
        <time>2014-11-23T14:48:57Z</time>
      </trkpt>
      <trkpt lat="48.7948" lon="2.07194">
        <ele>161.16</ele>
        <time>2014-11-23T14:49:03Z</time>
      </trkpt>
      <trkpt lat="48.79487" lon="2.072">
        <ele>160.68</ele>
        <time>2014-11-23T14:49:11Z</time>
      </trkpt>
      <trkpt lat="48.79496" lon="2.07204">
        <ele>161.16</ele>
        <time>2014-11-23T14:49:18Z</time>
      </trkpt>
      <trkpt lat="48.79511" lon="2.07208">
        <ele>161.64</ele>
        <time>2014-11-23T14:49:32Z</time>
      </trkpt>
      <trkpt lat="48.79525" lon="2.07217">
        <ele>161.64</ele>
        <time>2014-11-23T14:49:46Z</time>
      </trkpt>
      <trkpt lat="48.79539" lon="2.07223">
        <ele>162.12</ele>
        <time>2014-11-23T14:50:03Z</time>
      </trkpt>
      <trkpt lat="48.79559" lon="2.07229">
        <ele>162.6</ele>
        <time>2014-11-23T14:50:21Z</time>
      </trkpt>
      <trkpt lat="48.79577" lon="2.07246">
        <ele>163.08</ele>
        <time>2014-11-23T14:50:36Z</time>
      </trkpt>
      <trkpt lat="48.79592" lon="2.07243">
        <ele>163.56</ele>
        <time>2014-11-23T14:50:50Z</time>
      </trkpt>
      <trkpt lat="48.79607" lon="2.07248">
        <ele>164.04</ele>
        <time>2014-11-23T14:51:06Z</time>
      </trkpt>
      <trkpt lat="48.79627" lon="2.07257">
        <ele>164.52</ele>
        <time>2014-11-23T14:51:24Z</time>
      </trkpt>
      <trkpt lat="48.79641" lon="2.07261">
        <ele>165</ele>
        <time>2014-11-23T14:51:38Z</time>
      </trkpt>
      <trkpt lat="48.79657" lon="2.07271">
        <ele>165.48</ele>
        <time>2014-11-23T14:51:54Z</time>
      </trkpt>
      <trkpt lat="48.79671" lon="2.07276">
        <ele>165.96</ele>
        <time>2014-11-23T14:52:11Z</time>
      </trkpt>
      <trkpt lat="48.79692" lon="2.0728">
        <ele>166.45</ele>
        <time>2014-11-23T14:52:27Z</time>
      </trkpt>
      <trkpt lat="48.79703" lon="2.07283">
        <ele>166.93</ele>
        <time>2014-11-23T14:52:40Z</time>
      </trkpt>
      <trkpt lat="48.79706" lon="2.07287">
        <ele>166.93</ele>
        <time>2014-11-23T14:52:44Z</time>
      </trkpt>
      <trkpt lat="48.79727" lon="2.07292">
        <ele>167.41</ele>
        <time>2014-11-23T14:53:03Z</time>
      </trkpt>
      <trkpt lat="48.79748" lon="2.07301">
        <ele>167.89</ele>
        <time>2014-11-23T14:53:21Z</time>
      </trkpt>
      <trkpt lat="48.79762" lon="2.0731">
        <ele>166.45</ele>
        <time>2014-11-23T14:53:36Z</time>
      </trkpt>
      <trkpt lat="48.79779" lon="2.07318">
        <ele>165</ele>
        <time>2014-11-23T14:53:53Z</time>
      </trkpt>
      <trkpt lat="48.79798" lon="2.07322">
        <ele>163.08</ele>
        <time>2014-11-23T14:54:12Z</time>
      </trkpt>
      <trkpt lat="48.79815" lon="2.07327">
        <ele>160.68</ele>
        <time>2014-11-23T14:54:33Z</time>
      </trkpt>
      <trkpt lat="48.79833" lon="2.07325">
        <ele>158.27</ele>
        <time>2014-11-23T14:54:50Z</time>
      </trkpt>
      <trkpt lat="48.79849" lon="2.07315">
        <ele>157.31</ele>
        <time>2014-11-23T14:55:05Z</time>
      </trkpt>
      <trkpt lat="48.79851" lon="2.07308">
        <ele>157.31</ele>
        <time>2014-11-23T14:55:14Z</time>
      </trkpt>
      <trkpt lat="48.79851" lon="2.07296">
        <ele>156.35</ele>
        <time>2014-11-23T14:55:30Z</time>
      </trkpt>
      <trkpt lat="48.79851" lon="2.07287">
        <ele>155.87</ele>
        <time>2014-11-23T14:55:45Z</time>
      </trkpt>
      <trkpt lat="48.7985" lon="2.07273">
        <ele>154.91</ele>
        <time>2014-11-23T14:56:02Z</time>
      </trkpt>
      <trkpt lat="48.79842" lon="2.07254">
        <ele>152.99</ele>
        <time>2014-11-23T14:56:18Z</time>
      </trkpt>
      <trkpt lat="48.79841" lon="2.07244">
        <ele>151.54</ele>
        <time>2014-11-23T14:56:32Z</time>
      </trkpt>
      <trkpt lat="48.7985" lon="2.07234">
        <ele>149.14</ele>
        <time>2014-11-23T14:56:45Z</time>
      </trkpt>
      <trkpt lat="48.79874" lon="2.07213">
        <ele>148.18</ele>
        <time>2014-11-23T14:57:21Z</time>
      </trkpt>
    </trkseg>
  </trk>
</gpx>